Observation data for Persimmon Gap on 07/11/2018      Previous  Date       Current Mesonet Observations  Soil Data  Daily Summary Page  Observations in Plain Language
KPG1 110501Z 08002KT 24/18 A3011 RMK A01 T02390182  RH  070%=      5-min Rain = 0
KPG1 110502Z 08002KT 24/18 A3011 RMK A01 T02380182  RH  071%=      5-min Rain = 0
KPG1 110503Z 09002KT 24/18 A3011 RMK A01 T02370183  RH  071%=      5-min Rain = 0
KPG1 110504Z 08002KT 24/18 A3011 RMK A01 T02360183  RH  072%=      5-min Rain = 0
KPG1 110505Z 09002KT 24/18 A3011 RMK A01 T02350183  RH  072%=      5-min Rain = 0
KPG1 110506Z 10002KT 24/18 A3011 RMK A01 T02350184  RH  073%=      5-min Rain = 0
KPG1 110507Z 11003KT 23/18 A3011 RMK A01 T02340183  RH  073%=      5-min Rain = 0
KPG1 110508Z 10002KT 23/18 A3011 RMK A01 T02340183  RH  073%=      5-min Rain = 0
KPG1 110509Z 10002KT 23/18 A3011 RMK A01 T02340183  RH  073%=      5-min Rain = 0
KPG1 110510Z 10002KT 23/18 A3011 RMK A01 T02340183  RH  073%=      5-min Rain = 0
KPG1 110511Z 10002KT 23/18 A3011 RMK A01 T02330183  RH  073%=      5-min Rain = 0
KPG1 110512Z 08002KT 23/18 A3011 RMK A01 T02330181  RH  072%=      5-min Rain = 0
KPG1 110513Z 09001KT 23/18 A3011 RMK A01 T02340181  RH  072%=      5-min Rain = 0
KPG1 110514Z 09001KT 24/18 A3011 RMK A01 T02350180  RH  072%=      5-min Rain = 0
KPG1 110515Z 11002KT 24/18 A3011 RMK A01 T02350180  RH  071%=      5-min Rain = 0
KPG1 110516Z 09002KT 24/18 A3011 RMK A01 T02360178  RH  070%=      5-min Rain = 0
KPG1 110517Z 11002KT 24/18 A3011 RMK A01 T02360178  RH  070%=      5-min Rain = 0
KPG1 110518Z 11001KT 24/18 A3011 RMK A01 T02360178  RH  070%=      5-min Rain = 0
KPG1 110519Z 17000KT 24/18 A3011 RMK A01 T02370176  RH  069%=      5-min Rain = 0
KPG1 110520Z 14000KT 24/18 A3011 RMK A01 T02370176  RH  068%=      5-min Rain = 0
KPG1 110521Z 12000KT 24/18 A3011 RMK A01 T02370175  RH  068%=      5-min Rain = 0
KPG1 110522Z 13000KT 24/18 A3011 RMK A01 T02380175  RH  068%=      5-min Rain = 0
KPG1 110523Z 12001KT 24/18 A3011 RMK A01 T02380175  RH  068%=      5-min Rain = 0
KPG1 110524Z 14001KT 24/17 A3011 RMK A01 T02380173  RH  067%=      5-min Rain = 0
KPG1 110525Z 15001KT 24/17 A3011 RMK A01 T02390173  RH  067%=      5-min Rain = 0
KPG1 110526Z 13001KT 24/17 A3011 RMK A01 T02400173  RH  066%=      5-min Rain = 0
KPG1 110527Z 12001KT 24/17 A3011 RMK A01 T02400173  RH  066%=      5-min Rain = 0
KPG1 110528Z 10002KT 24/17 A3011 RMK A01 T02400174  RH  066%=      5-min Rain = 0
KPG1 110529Z 09004KT 24/18 A3011 RMK A01 T02410175  RH  067%=      5-min Rain = 0
KPG1 110530Z 06003KT 24/18 A3011 RMK A01 T02400178  RH  068%=      5-min Rain = 0
KPG1 110531Z 04003KT 24/18 A3011 RMK A01 T02370180  RH  070%=      5-min Rain = 0
KPG1 110532Z 04002KT 24/18 A3011 RMK A01 T02350179  RH  071%=      5-min Rain = 0
KPG1 110533Z 04002KT 23/18 A3011 RMK A01 T02340179  RH  071%=      5-min Rain = 0
KPG1 110534Z 02002KT 23/18 A3011 RMK A01 T02330182  RH  073%=      5-min Rain = 0
KPG1 110535Z 03002KT 23/18 A3011 RMK A01 T02310182  RH  074%=      5-min Rain = 0
KPG1 110536Z 04002KT 23/18 A3011 RMK A01 T02300180  RH  073%=      5-min Rain = 0
KPG1 110537Z 03002KT 23/18 A3011 RMK A01 T02310180  RH  073%=      5-min Rain = 0
KPG1 110538Z 03002KT 23/18 A3011 RMK A01 T02310180  RH  073%=      5-min Rain = 0
KPG1 110539Z 03002KT 23/18 A3011 RMK A01 T02320179  RH  072%=      5-min Rain = 0
KPG1 110540Z 04002KT 23/18 A3011 RMK A01 T02320180  RH  072%=      5-min Rain = 0
KPG1 110541Z 02002KT 23/18 A3011 RMK A01 T02330179  RH  072%=      5-min Rain = 0
KPG1 110542Z 03003KT 23/18 A3011 RMK A01 T02340176  RH  070%=      5-min Rain = 0
KPG1 110543Z 01003KT 24/18 A3011 RMK A01 T02350178  RH  070%=      5-min Rain = 0
KPG1 110544Z 01003KT 24/18 A3011 RMK A01 T02360177  RH  070%=      5-min Rain = 0
KPG1 110545Z 02003KT 24/18 A3011 RMK A01 T02360176  RH  069%=      5-min Rain = 0
KPG1 110546Z 03003KT 24/18 A3011 RMK A01 T02370177  RH  069%=      5-min Rain = 0
KPG1 110547Z 03003KT 24/18 A3011 RMK A01 T02370176  RH  068%=      5-min Rain = 0
KPG1 110548Z 02002KT 24/18 A3011 RMK A01 T02380176  RH  068%=      5-min Rain = 0
KPG1 110549Z 02002KT 24/18 A3011 RMK A01 T02390175  RH  067%=      5-min Rain = 0
KPG1 110550Z 36001KT 24/18 A3011 RMK A01 T02400177  RH  068%=      5-min Rain = 0
KPG1 110551Z 01002KT 24/17 A3011 RMK A01 T02400174  RH  067%=      5-min Rain = 0
KPG1 110552Z 00002KT 24/18 A3012 RMK A01 T02410175  RH  066%=      5-min Rain = 0
KPG1 110553Z 35002KT 24/18 A3012 RMK A01 T02410176  RH  067%=      5-min Rain = 0
KPG1 110554Z 01002KT 24/18 A3012 RMK A01 T02410178  RH  068%=      5-min Rain = 0
KPG1 110555Z 02002KT 24/18 A3012 RMK A01 T02400178  RH  068%=      5-min Rain = 0
KPG1 110556Z 04002KT 24/18 A3012 RMK A01 T02390177  RH  068%=      5-min Rain = 0
KPG1 110557Z 02002KT 24/18 A3012 RMK A01 T02380179  RH  069%=      5-min Rain = 0
KPG1 110558Z 01002KT 24/18 A3012 RMK A01 T02360180  RH  071%=      5-min Rain = 0
KPG1 110559Z 01002KT 23/18 A3012 RMK A01 T02340180  RH  072%=      5-min Rain = 0
KPG1 110600Z 02002KT 23/18 A3012 RMK A01 T02330181  RH  072%=      5-min Rain = 0
KPG1 110601Z 01002KT 23/18 A3012 RMK A01 T02310180  RH  073%=      5-min Rain = 0
KPG1 110602Z 02002KT 23/18 A3012 RMK A01 T02300180  RH  073%=      5-min Rain = 0
KPG1 110603Z 02002KT 23/18 A3012 RMK A01 T02300180  RH  073%=      5-min Rain = 0
KPG1 110604Z 03002KT 23/18 A3012 RMK A01 T02310180  RH  073%=      5-min Rain = 0
KPG1 110605Z 03002KT 23/18 A3012 RMK A01 T02300182  RH  074%=      5-min Rain = 0
KPG1 110606Z 04002KT 23/18 A3012 RMK A01 T02300180  RH  074%=      5-min Rain = 0
KPG1 110607Z 04002KT 23/18 A3012 RMK A01 T02300180  RH  073%=      5-min Rain = 0
KPG1 110608Z 05001KT 23/18 A3012 RMK A01 T02310179  RH  073%=      5-min Rain = 0
KPG1 110609Z 04001KT 23/18 A3012 RMK A01 T02320179  RH  072%=      5-min Rain = 0
KPG1 110610Z 03001KT 23/18 A3012 RMK A01 T02340179  RH  072%=      5-min Rain = 0
KPG1 110611Z 03002KT 23/18 A3012 RMK A01 T02340180  RH  072%=      5-min Rain = 0
KPG1 110612Z 05002KT 23/18 A3012 RMK A01 T02340178  RH  071%=      5-min Rain = 0
KPG1 110613Z 05002KT 23/18 A3012 RMK A01 T02340180  RH  072%=      5-min Rain = 0
KPG1 110614Z 03002KT 23/18 A3012 RMK A01 T02340179  RH  071%=      5-min Rain = 0
KPG1 110615Z 02002KT 23/18 A3012 RMK A01 T02340179  RH  071%=      5-min Rain = 0
KPG1 110616Z 02002KT 23/18 A3012 RMK A01 T02340180  RH  072%=      5-min Rain = 0
KPG1 110617Z 02001KT 23/18 A3012 RMK A01 T02340181  RH  072%=      5-min Rain = 0
KPG1 110618Z 03001KT 23/18 A3012 RMK A01 T02330181  RH  072%=      5-min Rain = 0
KPG1 110619Z 04001KT 23/18 A3012 RMK A01 T02320181  RH  073%=      5-min Rain = 0
KPG1 110620Z 05001KT 23/18 A3012 RMK A01 T02320180  RH  073%=      5-min Rain = 0
KPG1 110621Z 03001KT 23/18 A3012 RMK A01 T02320180  RH  073%=      5-min Rain = 0
KPG1 110622Z 03001KT 23/18 A3012 RMK A01 T02320180  RH  072%=      5-min Rain = 0
KPG1 110623Z 03000KT 23/18 A3012 RMK A01 T02320180  RH  072%=      5-min Rain = 0
KPG1 110624Z 00000KT 23/18 A3012 RMK A01 T02330180  RH  072%=      5-min Rain = 0
KPG1 110625Z 00000KT 23/18 A3012 RMK A01 T02330180  RH  072%=      5-min Rain = 0
KPG1 110626Z 00000KT 23/18 A3011 RMK A01 T02330180  RH  072%=      5-min Rain = 0
KPG1 110627Z 00000KT 23/18 A3011 RMK A01 T02330183  RH  073%=      5-min Rain = 0
KPG1 110628Z 08001KT 23/18 A3011 RMK A01 T02320184  RH  074%=      5-min Rain = 0
KPG1 110629Z 07001KT 23/18 A3011 RMK A01 T02300184  RH  075%=      5-min Rain = 0
KPG1 110630Z 06001KT 23/18 A3011 RMK A01 T02280184  RH  076%=      5-min Rain = 0
KPG1 110631Z 05001KT 23/18 A3011 RMK A01 T02270183  RH  076%=      5-min Rain = 0
KPG1 110632Z 05000KT 23/18 A3011 RMK A01 T02260184  RH  077%=      5-min Rain = 0
KPG1 110633Z 00000KT 23/18 A3011 RMK A01 T02260183  RH  077%=      5-min Rain = 0
KPG1 110634Z 00000KT 23/18 A3011 RMK A01 T02260184  RH  077%=      5-min Rain = 0
KPG1 110635Z 00000KT 23/18 A3011 RMK A01 T02270184  RH  077%=      5-min Rain = 0
KPG1 110636Z 00000KT 23/18 A3011 RMK A01 T02260184  RH  077%=      5-min Rain = 0
KPG1 110637Z 00000KT 23/18 A3011 RMK A01 T02260182  RH  076%=      5-min Rain = 0
KPG1 110638Z 00000KT 23/18 A3011 RMK A01 T02260180  RH  075%=      5-min Rain = 0
KPG1 110639Z 00000KT 23/18 A3011 RMK A01 T02270178  RH  074%=      5-min Rain = 0
KPG1 110640Z 00000KT 23/18 A3011 RMK A01 T02280178  RH  073%=      5-min Rain = 0
KPG1 110641Z 00000KT 23/18 A3011 RMK A01 T02290177  RH  072%=      5-min Rain = 0
KPG1 110642Z 00000KT 23/18 A3011 RMK A01 T02300177  RH  072%=      5-min Rain = 0
KPG1 110643Z 29000KT 23/18 A3011 RMK A01 T02310178  RH  072%=      5-min Rain = 0
KPG1 110644Z 28001KT 23/18 A3011 RMK A01 T02320178  RH  072%=      5-min Rain = 0
KPG1 110645Z 26000KT 23/18 A3011 RMK A01 T02320178  RH  072%=      5-min Rain = 0
KPG1 110646Z 25001KT 23/18 A3011 RMK A01 T02320178  RH  072%=      5-min Rain = 0
KPG1 110647Z 25001KT 23/18 A3011 RMK A01 T02320179  RH  072%=      5-min Rain = 0
KPG1 110648Z 23000KT 23/18 A3011 RMK A01 T02320180  RH  072%=      5-min Rain = 0
KPG1 110649Z 22002KT 23/18 A3011 RMK A01 T02310179  RH  072%=      5-min Rain = 0
KPG1 110650Z 22002KT 23/18 A3011 RMK A01 T02310180  RH  073%=      5-min Rain = 0
KPG1 110651Z 23002KT 23/18 A3011 RMK A01 T02310181  RH  073%=      5-min Rain = 0
KPG1 110652Z 23002KT 23/18 A3011 RMK A01 T02300180  RH  073%=      5-min Rain = 0
KPG1 110653Z 24002KT 23/18 A3011 RMK A01 T02290181  RH  074%=      5-min Rain = 0
KPG1 110654Z 25003KT 23/18 A3011 RMK A01 T02280180  RH  074%=      5-min Rain = 0
KPG1 110655Z 25003KT 23/18 A3011 RMK A01 T02270180  RH  075%=      5-min Rain = 0
KPG1 110656Z 25002KT 23/18 A3011 RMK A01 T02260180  RH  075%=      5-min Rain = 0
KPG1 110657Z 26002KT 23/18 A3011 RMK A01 T02260181  RH  075%=      5-min Rain = 0
KPG1 110658Z 27001KT 23/18 A3011 RMK A01 T02260182  RH  076%=      5-min Rain = 0
KPG1 110659Z 27001KT 23/18 A3011 RMK A01 T02250182  RH  077%=      5-min Rain = 0
KPG1 110700Z 29000KT 22/18 A3011 RMK A01 T02240183  RH  077%=      5-min Rain = 0
KPG1 110701Z 23000KT 22/18 A3011 RMK A01 T02240182  RH  077%=      5-min Rain = 0
KPG1 110702Z 23000KT 22/18 A3011 RMK A01 T02240182  RH  077%=      5-min Rain = 0
KPG1 110703Z 25001KT 22/18 A3011 RMK A01 T02230180  RH  077%=      5-min Rain = 0
KPG1 110704Z 23001KT 22/18 A3011 RMK A01 T02230182  RH  077%=      5-min Rain = 0
KPG1 110705Z 23000KT 22/18 A3011 RMK A01 T02230184  RH  079%=      5-min Rain = 0
KPG1 110706Z 20001KT 22/18 A3011 RMK A01 T02230184  RH  078%=      5-min Rain = 0
KPG1 110707Z 15000KT 22/18 A3011 RMK A01 T02220181  RH  077%=      5-min Rain = 0
KPG1 110708Z 15001KT 22/18 A3011 RMK A01 T02230181  RH  077%=      5-min Rain = 0
KPG1 110709Z 14001KT 22/18 A3011 RMK A01 T02220180  RH  077%=      5-min Rain = 0
KPG1 110710Z 14000KT 22/18 A3011 RMK A01 T02220179  RH  077%=      5-min Rain = 0
KPG1 110711Z 13000KT 22/18 A3011 RMK A01 T02230181  RH  077%=      5-min Rain = 0
KPG1 110712Z 09001KT 22/18 A3011 RMK A01 T02230183  RH  078%=      5-min Rain = 0
KPG1 110713Z 08001KT 22/18 A3011 RMK A01 T02230184  RH  079%=      5-min Rain = 0
KPG1 110714Z 07001KT 22/18 A3011 RMK A01 T02220184  RH  079%=      5-min Rain = 0
KPG1 110715Z 05001KT 22/18 A3011 RMK A01 T02210183  RH  079%=      5-min Rain = 0
KPG1 110716Z 05000KT 22/18 A3011 RMK A01 T02200183  RH  080%=      5-min Rain = 0
KPG1 110717Z 03000KT 22/19 A3011 RMK A01 T02190185  RH  081%=      5-min Rain = 0
KPG1 110718Z 00000KT 22/18 A3011 RMK A01 T02180184  RH  081%=      5-min Rain = 0
KPG1 110719Z 12000KT 22/18 A3011 RMK A01 T02180184  RH  081%=      5-min Rain = 0
KPG1 110720Z 12000KT 22/18 A3011 RMK A01 T02180183  RH  080%=      5-min Rain = 0
KPG1 110721Z 00000KT 22/18 A3011 RMK A01 T02180183  RH  080%=      5-min Rain = 0
KPG1 110722Z 02000KT 22/18 A3011 RMK A01 T02190183  RH  080%=      5-min Rain = 0
KPG1 110723Z 04000KT 22/18 A3011 RMK A01 T02190182  RH  079%=      5-min Rain = 0
KPG1 110724Z 00000KT 22/18 A3011 RMK A01 T02200180  RH  078%=      5-min Rain = 0
KPG1 110725Z 00000KT 22/18 A3011 RMK A01 T02210181  RH  078%=      5-min Rain = 0
KPG1 110726Z 00000KT 22/18 A3011 RMK A01 T02210181  RH  078%=      5-min Rain = 0
KPG1 110727Z 00000KT 22/18 A3011 RMK A01 T02220179  RH  077%=      5-min Rain = 0
KPG1 110728Z 00000KT 22/18 A3011 RMK A01 T02230179  RH  076%=      5-min Rain = 0
KPG1 110729Z 00000KT 22/18 A3011 RMK A01 T02230179  RH  076%=      5-min Rain = 0
KPG1 110730Z 04000KT 22/18 A3011 RMK A01 T02240180  RH  076%=      5-min Rain = 0
KPG1 110731Z 04002KT 22/18 A3011 RMK A01 T02230184  RH  078%=      5-min Rain = 0
KPG1 110732Z 04002KT 22/18 A3011 RMK A01 T02210183  RH  079%=      5-min Rain = 0
KPG1 110733Z 03002KT 22/18 A3011 RMK A01 T02200181  RH  079%=      5-min Rain = 0
KPG1 110734Z 04003KT 22/19 A3011 RMK A01 T02190185  RH  081%=      5-min Rain = 0
KPG1 110735Z 05003KT 22/19 A3011 RMK A01 T02180185  RH  082%=      5-min Rain = 0
KPG1 110736Z 05003KT 22/19 A3011 RMK A01 T02160185  RH  083%=      5-min Rain = 0
KPG1 110737Z 04003KT 22/19 A3011 RMK A01 T02150186  RH  083%=      5-min Rain = 0
KPG1 110738Z 04003KT 21/18 A3011 RMK A01 T02140184  RH  083%=      5-min Rain = 0
KPG1 110739Z 04003KT 21/18 A3011 RMK A01 T02140183  RH  083%=      5-min Rain = 0
KPG1 110740Z 04003KT 21/18 A3011 RMK A01 T02140184  RH  083%=      5-min Rain = 0
KPG1 110741Z 03003KT 22/19 A3011 RMK A01 T02150186  RH  083%=      5-min Rain = 0
KPG1 110742Z 03003KT 21/18 A3011 RMK A01 T02140184  RH  083%=      5-min Rain = 0
KPG1 110743Z 02004KT 21/18 A3011 RMK A01 T02140184  RH  083%=      5-min Rain = 0
KPG1 110744Z 02004KT 22/18 A301 RMK A01 T02150182  RH  082%=      5-min Rain = 0
KPG1 110745Z 02004KT 22/18 A301 RMK A01 T02170181  RH  080%=      5-min Rain = 0
KPG1 110746Z 01004KT 22/18 A301 RMK A01 T02190181  RH  079%=      5-min Rain = 0
KPG1 110747Z 01004KT 22/18 A301 RMK A01 T02200182  RH  079%=      5-min Rain = 0
KPG1 110748Z 02003KT 22/18 A301 RMK A01 T02200181  RH  078%=      5-min Rain = 0
KPG1 110749Z 01003KT 22/18 A301 RMK A01 T02200184  RH  080%=      5-min Rain = 0
KPG1 110750Z 01003KT 22/19 A301 RMK A01 T02190185  RH  081%=      5-min Rain = 0
KPG1 110751Z 01003KT 22/18 A301 RMK A01 T02170184  RH  082%=      5-min Rain = 0
KPG1 110752Z 01003KT 22/18 A301 RMK A01 T02170184  RH  082%=      5-min Rain = 0
KPG1 110753Z 01004KT 22/18 A301 RMK A01 T02160183  RH  082%=      5-min Rain = 0
KPG1 110754Z 01004KT 22/18 A301 RMK A01 T02160184  RH  082%=      5-min Rain = 0
KPG1 110755Z 02003KT 22/19 A301 RMK A01 T02160185  RH  082%=      5-min Rain = 0
KPG1 110756Z 05003KT 22/18 A301 RMK A01 T02160184  RH  082%=      5-min Rain = 0
KPG1 110757Z 04003KT 22/18 A301 RMK A01 T02170181  RH  080%=      5-min Rain = 0
KPG1 110758Z 04003KT 22/18 A301 RMK A01 T02190181  RH  079%=      5-min Rain = 0
KPG1 110759Z 05003KT 22/18 A301 RMK A01 T02200182  RH  079%=      5-min Rain = 0
KPG1 110800Z 05003KT 22/18 A301 RMK A01 T02210181  RH  078%=      5-min Rain = 0
KPG1 110801Z 04003KT 22/18 A301 RMK A01 T02210181  RH  078%=      5-min Rain = 0
KPG1 110802Z 04003KT 22/18 A301 RMK A01 T02220180  RH  077%=      5-min Rain = 0
KPG1 110803Z 03003KT 22/18 A301 RMK A01 T02240178  RH  075%=      5-min Rain = 0
KPG1 110804Z 03003KT 23/18 A301 RMK A01 T02250178  RH  075%=      5-min Rain = 0
KPG1 110805Z 03002KT 23/18 A301 RMK A01 T02270178  RH  074%=      5-min Rain = 0
KPG1 110806Z 01003KT 23/18 A301 RMK A01 T02270181  RH  075%=      5-min Rain = 0
KPG1 110807Z 00003KT 23/18 A301 RMK A01 T02260178  RH  074%=      5-min Rain = 0
KPG1 110808Z 36003KT 23/18 A301 RMK A01 T02260177  RH  074%=      5-min Rain = 0
KPG1 110809Z 00003KT 23/18 A301 RMK A01 T02260179  RH  074%=      5-min Rain = 0
KPG1 110810Z 00003KT 23/18 A301 RMK A01 T02260178  RH  074%=      5-min Rain = 0
KPG1 110811Z 01002KT 23/18 A301 RMK A01 T02250182  RH  077%=      5-min Rain = 0
KPG1 110812Z 01002KT 22/18 A301 RMK A01 T02220180  RH  077%=      5-min Rain = 0
KPG1 110813Z 02002KT 22/18 A301 RMK A01 T02220179  RH  077%=      5-min Rain = 0
KPG1 110814Z 04002KT 22/18 A301 RMK A01 T02220180  RH  077%=      5-min Rain = 0
KPG1 110815Z 05002KT 22/18 A301 RMK A01 T02220179  RH  076%=      5-min Rain = 0
KPG1 110816Z 06002KT 22/18 A301 RMK A01 T02230177  RH  075%=      5-min Rain = 0
KPG1 110817Z 08002KT 22/18 A301 RMK A01 T02240178  RH  075%=      5-min Rain = 0
KPG1 110818Z 08002KT 23/18 A301 RMK A01 T02250175  RH  074%=      5-min Rain = 0
KPG1 110819Z 09001KT 23/17 A301 RMK A01 T02260174  RH  072%=      5-min Rain = 0
KPG1 110820Z 08002KT 23/18 A301 RMK A01 T02280176  RH  073%=      5-min Rain = 0
KPG1 110821Z 07002KT 23/18 A3009 RMK A01 T02280176  RH  072%=      5-min Rain = 0
KPG1 110822Z 07002KT 23/18 A3009 RMK A01 T02270176  RH  073%=      5-min Rain = 0
KPG1 110823Z 07002KT 23/18 A3009 RMK A01 T02270177  RH  073%=      5-min Rain = 0
KPG1 110824Z 06003KT 23/18 A3009 RMK A01 T02250178  RH  075%=      5-min Rain = 0
KPG1 110825Z 06003KT 22/18 A3009 RMK A01 T02230177  RH  076%=      5-min Rain = 0
KPG1 110826Z 05003KT 22/18 A3009 RMK A01 T02210177  RH  076%=      5-min Rain = 0
KPG1 110827Z 04003KT 22/18 A3009 RMK A01 T02200177  RH  077%=      5-min Rain = 0
KPG1 110828Z 04003KT 22/18 A3009 RMK A01 T02190177  RH  077%=      5-min Rain = 0
KPG1 110829Z 04003KT 22/18 A3009 RMK A01 T02190178  RH  078%=      5-min Rain = 0
KPG1 110830Z 04002KT 22/18 A3009 RMK A01 T02190178  RH  078%=      5-min Rain = 0
KPG1 110831Z 03002KT 22/18 A3009 RMK A01 T02190177  RH  077%=      5-min Rain = 0
KPG1 110832Z 03002KT 22/18 A3009 RMK A01 T02200178  RH  077%=      5-min Rain = 0
KPG1 110833Z 04002KT 22/18 A3009 RMK A01 T02210178  RH  077%=      5-min Rain = 0
KPG1 110834Z 05002KT 22/18 A3009 RMK A01 T02210177  RH  076%=      5-min Rain = 0
KPG1 110835Z 05002KT 22/18 A3009 RMK A01 T02210178  RH  077%=      5-min Rain = 0
KPG1 110836Z 05002KT 22/18 A3009 RMK A01 T02200179  RH  077%=      5-min Rain = 0
KPG1 110837Z 05002KT 22/18 A3009 RMK A01 T02200179  RH  077%=      5-min Rain = 0
KPG1 110838Z 04003KT 22/18 A3009 RMK A01 T02190179  RH  078%=      5-min Rain = 0
KPG1 110839Z 05002KT 22/18 A3009 RMK A01 T02190179  RH  078%=      5-min Rain = 0
KPG1 110840Z 04002KT 22/18 A3009 RMK A01 T02190180  RH  078%=      5-min Rain = 0
KPG1 110841Z 03001KT 22/18 A3009 RMK A01 T02190180  RH  078%=      5-min Rain = 0
KPG1 110842Z 02001KT 22/18 A3009 RMK A01 T02180180  RH  079%=      5-min Rain = 0
KPG1 110843Z 01001KT 22/18 A3009 RMK A01 T02180180  RH  079%=      5-min Rain = 0
KPG1 110844Z 02001KT 22/18 A3009 RMK A01 T02180180  RH  079%=      5-min Rain = 0
KPG1 110845Z 02000KT 22/18 A3009 RMK A01 T02170179  RH  079%=      5-min Rain = 0
KPG1 110846Z 00000KT 22/18 A3009 RMK A01 T02170177  RH  078%=      5-min Rain = 0
KPG1 110847Z 00000KT 22/18 A3009 RMK A01 T02170175  RH  077%=      5-min Rain = 0
KPG1 110848Z 16000KT 22/18 A3009 RMK A01 T02190176  RH  077%=      5-min Rain = 0
KPG1 110849Z 18001KT 22/18 A3009 RMK A01 T02190178  RH  077%=      5-min Rain = 0
KPG1 110850Z 23002KT 22/18 A3009 RMK A01 T02190180  RH  078%=      5-min Rain = 0
KPG1 110851Z 24003KT 22/18 A3009 RMK A01 T02170181  RH  080%=      5-min Rain = 0
KPG1 110852Z 24005KT 21/18 A3009 RMK A01 T02140180  RH  081%=      5-min Rain = 0
KPG1 110853Z 25005KT 21/18 A3009 RMK A01 T02130180  RH  082%=      5-min Rain = 0
KPG1 110854Z 25004KT 21/18 A3009 RMK A01 T02120181  RH  082%=      5-min Rain = 0
KPG1 110855Z 26004KT 21/18 A3009 RMK A01 T02120181  RH  082%=      5-min Rain = 0
KPG1 110856Z 27003KT 21/18 A3009 RMK A01 T02120181  RH  083%=      5-min Rain = 0
KPG1 110857Z 25002KT 21/18 A3009 RMK A01 T02120181  RH  082%=      5-min Rain = 0
KPG1 110858Z 27003KT 21/18 A3009 RMK A01 T02130181  RH  082%=      5-min Rain = 0
KPG1 110859Z 26003KT 21/18 A3009 RMK A01 T02130181  RH  082%=      5-min Rain = 0
KPG1 110900Z 26002KT 21/18 A3009 RMK A01 T02140181  RH  082%=      5-min Rain = 0
KPG1 110901Z 27001KT 21/18 A3009 RMK A01 T02140182  RH  082%=      5-min Rain = 0
KPG1 110902Z 23001KT 21/18 A3009 RMK A01 T02140182  RH  082%=      5-min Rain = 0
KPG1 110903Z 22001KT 21/18 A3009 RMK A01 T02140181  RH  082%=      5-min Rain = 0
KPG1 110904Z 22001KT 21/18 A3009 RMK A01 T02140181  RH  082%=      5-min Rain = 0
KPG1 110905Z 19001KT 22/18 A3009 RMK A01 T02150182  RH  082%=      5-min Rain = 0
KPG1 110906Z 16001KT 21/18 A3009 RMK A01 T02140182  RH  082%=      5-min Rain = 0
KPG1 110907Z 11001KT 21/18 A3009 RMK A01 T02140182  RH  082%=      5-min Rain = 0
KPG1 110908Z 10001KT 21/18 A3009 RMK A01 T02140183  RH  082%=      5-min Rain = 0
KPG1 110909Z 09002KT 21/18 A3009 RMK A01 T02130183  RH  083%=      5-min Rain = 0
KPG1 110910Z 08001KT 21/18 A3009 RMK A01 T02110183  RH  084%=      5-min Rain = 0
KPG1 110911Z 06001KT 21/18 A3009 RMK A01 T02100182  RH  084%=      5-min Rain = 0
KPG1 110912Z 04002KT 21/18 A3009 RMK A01 T02090182  RH  085%=      5-min Rain = 0
KPG1 110913Z 03002KT 21/18 A3009 RMK A01 T02070182  RH  086%=      5-min Rain = 0
KPG1 110914Z 02002KT 21/18 A3009 RMK A01 T02070183  RH  086%=      5-min Rain = 0
KPG1 110915Z 02002KT 21/18 A3009 RMK A01 T02060183  RH  086%=      5-min Rain = 0
KPG1 110916Z 02003KT 21/18 A3009 RMK A01 T02060183  RH  086%=      5-min Rain = 0
KPG1 110917Z 02003KT 21/18 A3009 RMK A01 T02060182  RH  086%=      5-min Rain = 0
KPG1 110918Z 02003KT 21/18 A3009 RMK A01 T02070182  RH  086%=      5-min Rain = 0
KPG1 110919Z 02003KT 21/18 A3009 RMK A01 T02080183  RH  085%=      5-min Rain = 0
KPG1 110920Z 02003KT 21/18 A3009 RMK A01 T02080183  RH  085%=      5-min Rain = 0
KPG1 110921Z 03003KT 21/18 A3009 RMK A01 T02080182  RH  085%=      5-min Rain = 0
KPG1 110922Z 03003KT 21/18 A3009 RMK A01 T02090183  RH  085%=      5-min Rain = 0
KPG1 110923Z 03003KT 21/18 A3009 RMK A01 T02090183  RH  085%=      5-min Rain = 0
KPG1 110924Z 03003KT 21/18 A3009 RMK A01 T02090183  RH  085%=      5-min Rain = 0
KPG1 110925Z 03003KT 21/18 A3009 RMK A01 T02090183  RH  085%=      5-min Rain = 0
KPG1 110926Z 02004KT 21/18 A3009 RMK A01 T02080183  RH  086%=      5-min Rain = 0
KPG1 110927Z 02004KT 21/18 A3009 RMK A01 T02070181  RH  085%=      5-min Rain = 0
KPG1 110928Z 02003KT 21/18 A3009 RMK A01 T02080179  RH  083%=      5-min Rain = 0
KPG1 110929Z 02003KT 21/18 A3009 RMK A01 T02100179  RH  082%=      5-min Rain = 0
KPG1 110930Z 03003KT 21/18 A3009 RMK A01 T02110179  RH  082%=      5-min Rain = 0
KPG1 110931Z 04003KT 21/18 A3009 RMK A01 T02110178  RH  081%=      5-min Rain = 0
KPG1 110932Z 04003KT 21/18 A3009 RMK A01 T02120176  RH  080%=      5-min Rain = 0
KPG1 110933Z 02002KT 21/17 A3009 RMK A01 T02130174  RH  078%=      5-min Rain = 0
KPG1 110934Z 02002KT 22/17 A3008 RMK A01 T02150173  RH  077%=      5-min Rain = 0
KPG1 110935Z 03002KT 22/17 A3008 RMK A01 T02160173  RH  076%=      5-min Rain = 0
KPG1 110936Z 03002KT 22/17 A3008 RMK A01 T02170172  RH  076%=      5-min Rain = 0
KPG1 110937Z 03002KT 22/17 A3008 RMK A01 T02180173  RH  076%=      5-min Rain = 0
KPG1 110938Z 02002KT 22/18 A3008 RMK A01 T02180178  RH  078%=      5-min Rain = 0
KPG1 110939Z 03002KT 22/17 A3008 RMK A01 T02160173  RH  076%=      5-min Rain = 0
KPG1 110940Z 04002KT 22/17 A3008 RMK A01 T02180172  RH  075%=      5-min Rain = 0
KPG1 110941Z 04002KT 22/18 A3008 RMK A01 T02180176  RH  077%=      5-min Rain = 0
KPG1 110942Z 04001KT 22/18 A3008 RMK A01 T02160177  RH  078%=      5-min Rain = 0
KPG1 110943Z 06001KT 22/18 A3008 RMK A01 T02150177  RH  079%=      5-min Rain = 0
KPG1 110944Z 07001KT 21/18 A3008 RMK A01 T02140177  RH  080%=      5-min Rain = 0
KPG1 110945Z 05002KT 21/17 A3008 RMK A01 T02130174  RH  078%=      5-min Rain = 0
KPG1 110946Z 04002KT 21/17 A3008 RMK A01 T02140173  RH  078%=      5-min Rain = 0
KPG1 110947Z 03002KT 22/17 A3008 RMK A01 T02150174  RH  078%=      5-min Rain = 0
KPG1 110948Z 03003KT 22/18 A3008 RMK A01 T02150175  RH  078%=      5-min Rain = 0
KPG1 110949Z 02003KT 22/18 A3008 RMK A01 T02150176  RH  078%=      5-min Rain = 0
KPG1 110950Z 04003KT 21/18 A3009 RMK A01 T02140176  RH  079%=      5-min Rain = 0
KPG1 110951Z 02003KT 21/18 A3009 RMK A01 T02130175  RH  079%=      5-min Rain = 0
KPG1 110952Z 01004KT 21/17 A3009 RMK A01 T02140173  RH  078%=      5-min Rain = 0
KPG1 110953Z 02005KT 22/17 A3009 RMK A01 T02150173  RH  077%=      5-min Rain = 0
KPG1 110954Z 02005KT 22/17 A3009 RMK A01 T02160173  RH  077%=      5-min Rain = 0
KPG1 110955Z 03005KT 22/17 A3009 RMK A01 T02160172  RH  076%=      5-min Rain = 0
KPG1 110956Z 03004KT 22/17 A3009 RMK A01 T02180173  RH  076%=      5-min Rain = 0
KPG1 110957Z 04004KT 22/17 A3009 RMK A01 T02190174  RH  075%=      5-min Rain = 0
KPG1 110958Z 04005KT 22/17 A3009 RMK A01 T02200174  RH  075%=      5-min Rain = 0
KPG1 110959Z 04005KT 22/17 A3009 RMK A01 T02200173  RH  075%=      5-min Rain = 0
KPG1 111000Z 05005KT 22/17 A3009 RMK A01 T02210173  RH  074%=      5-min Rain = 0
KPG1 111001Z 02005KT 22/17 A3009 RMK A01 T02230173  RH  074%=      5-min Rain = 0
KPG1 111002Z 01005KT 22/17 A3009 RMK A01 T02230173  RH  074%=      5-min Rain = 0
KPG1 111003Z 02006KT 22/17 A3009 RMK A01 T02220174  RH  074%=      5-min Rain = 0
KPG1 111004Z 02005KT 22/17 A3009 RMK A01 T02230174  RH  074%=      5-min Rain = 0
KPG1 111005Z 02005KT 22/17 A3009 RMK A01 T02240174  RH  074%=      5-min Rain = 0
KPG1 111006Z 02004KT 22/17 A3008 RMK A01 T02240174  RH  074%=      5-min Rain = 0
KPG1 111007Z 03005KT 22/18 A3008 RMK A01 T02230175  RH  074%=      5-min Rain = 0
KPG1 111008Z 03005KT 22/18 A3008 RMK A01 T02220175  RH  074%=      5-min Rain = 0
KPG1 111009Z 04004KT 22/18 A3008 RMK A01 T02230175  RH  074%=      5-min Rain = 0
KPG1 111010Z 04004KT 22/18 A3008 RMK A01 T02240175  RH  074%=      5-min Rain = 0
KPG1 111011Z 03004KT 22/18 A3008 RMK A01 T02240175  RH  074%=      5-min Rain = 0
KPG1 111012Z 02003KT 22/18 A3008 RMK A01 T02230175  RH  074%=      5-min Rain = 0
KPG1 111013Z 04002KT 22/18 A3008 RMK A01 T02230176  RH  075%=      5-min Rain = 0
KPG1 111014Z 04003KT 22/18 A3008 RMK A01 T02200176  RH  076%=      5-min Rain = 0
KPG1 111015Z 04002KT 22/18 A3008 RMK A01 T02190176  RH  076%=      5-min Rain = 0
KPG1 111016Z 02003KT 22/18 A3008 RMK A01 T02180175  RH  076%=      5-min Rain = 0
KPG1 111017Z 02003KT 22/18 A3008 RMK A01 T02180176  RH  077%=      5-min Rain = 0
KPG1 111018Z 03002KT 22/18 A3008 RMK A01 T02180176  RH  077%=      5-min Rain = 0
KPG1 111019Z 02004KT 22/18 A3008 RMK A01 T02170176  RH  077%=      5-min Rain = 0
KPG1 111020Z 04004KT 22/18 A3008 RMK A01 T02170176  RH  077%=      5-min Rain = 0
KPG1 111021Z 04004KT 22/18 A3008 RMK A01 T02180176  RH  077%=      5-min Rain = 0
KPG1 111022Z 04005KT 22/18 A3008 RMK A01 T02190175  RH  076%=      5-min Rain = 0
KPG1 111023Z 03004KT 22/18 A3008 RMK A01 T02200176  RH  076%=      5-min Rain = 0
KPG1 111024Z 03004KT 22/18 A3008 RMK A01 T02210175  RH  075%=      5-min Rain = 0
KPG1 111025Z 01004KT 22/18 A3008 RMK A01 T02210175  RH  075%=      5-min Rain = 0
KPG1 111026Z 00003KT 22/18 A3009 RMK A01 T02230175  RH  074%=      5-min Rain = 0
KPG1 111027Z 00004KT 22/18 A3009 RMK A01 T02230175  RH  074%=      5-min Rain = 0
KPG1 111028Z 01004KT 22/18 A3009 RMK A01 T02230175  RH  074%=      5-min Rain = 0
KPG1 111029Z 00004KT 22/18 A3009 RMK A01 T02240176  RH  074%=      5-min Rain = 0
KPG1 111030Z 01004KT 22/18 A3009 RMK A01 T02240176  RH  074%=      5-min Rain = 0
KPG1 111031Z 01003KT 22/18 A3009 RMK A01 T02240175  RH  074%=      5-min Rain = 0
KPG1 111032Z 02004KT 22/17 A3009 RMK A01 T02240174  RH  073%=      5-min Rain = 0
KPG1 111033Z 02003KT 23/17 A3009 RMK A01 T02250174  RH  073%=      5-min Rain = 0
KPG1 111034Z 06003KT 22/18 A3009 RMK A01 T02240177  RH  074%=      5-min Rain = 0
KPG1 111035Z 06004KT 22/18 A3009 RMK A01 T02210176  RH  076%=      5-min Rain = 0
KPG1 111036Z 06004KT 22/18 A3009 RMK A01 T02190177  RH  077%=      5-min Rain = 0
KPG1 111037Z 05005KT 22/18 A3009 RMK A01 T02170177  RH  078%=      5-min Rain = 0
KPG1 111038Z 03006KT 22/18 A3009 RMK A01 T02150177  RH  079%=      5-min Rain = 0
KPG1 111039Z 03006KT 21/18 A3009 RMK A01 T02140178  RH  080%=      5-min Rain = 0
KPG1 111040Z 03006KT 21/18 A3009 RMK A01 T02130178  RH  080%=      5-min Rain = 0
KPG1 111041Z 03005KT 21/18 A3009 RMK A01 T02140177  RH  080%=      5-min Rain = 0
KPG1 111042Z 03005KT 22/18 A3009 RMK A01 T02150177  RH  079%=      5-min Rain = 0
KPG1 111043Z 03005KT 22/18 A3009 RMK A01 T02170178  RH  078%=      5-min Rain = 0
KPG1 111044Z 02005KT 22/18 A3009 RMK A01 T02170178  RH  078%=      5-min Rain = 0
KPG1 111045Z 02005KT 22/18 A3009 RMK A01 T02160177  RH  078%=      5-min Rain = 0
KPG1 111046Z 03005KT 22/18 A3009 RMK A01 T02160177  RH  078%=      5-min Rain = 0
KPG1 111047Z 03004KT 22/18 A3009 RMK A01 T02170177  RH  078%=      5-min Rain = 0
KPG1 111048Z 03004KT 22/18 A3009 RMK A01 T02180177  RH  078%=      5-min Rain = 0
KPG1 111049Z 02004KT 22/18 A3009 RMK A01 T02180177  RH  078%=      5-min Rain = 0
KPG1 111050Z 02004KT 22/18 A3009 RMK A01 T02170177  RH  078%=      5-min Rain = 0
KPG1 111051Z 03004KT 22/18 A3009 RMK A01 T02160178  RH  079%=      5-min Rain = 0
KPG1 111052Z 03004KT 22/18 A3009 RMK A01 T02160177  RH  078%=      5-min Rain = 0
KPG1 111053Z 03005KT 22/18 A3009 RMK A01 T02190175  RH  076%=      5-min Rain = 0
KPG1 111054Z 03004KT 22/18 A3009 RMK A01 T02220176  RH  075%=      5-min Rain = 0
KPG1 111055Z 03004KT 22/18 A3009 RMK A01 T02240176  RH  074%=      5-min Rain = 0
KPG1 111056Z 02004KT 23/18 A3009 RMK A01 T02250176  RH  074%=      5-min Rain = 0
KPG1 111057Z 02005KT 22/18 A3009 RMK A01 T02240177  RH  074%=      5-min Rain = 0
KPG1 111058Z 03004KT 22/18 A3009 RMK A01 T02230176  RH  075%=      5-min Rain = 0
KPG1 111059Z 02004KT 22/18 A3009 RMK A01 T02220176  RH  075%=      5-min Rain = 0
KPG1 111100Z 02004KT 22/18 A3009 RMK A01 T02220177  RH  076%=      5-min Rain = 0
KPG1 111101Z 02004KT 22/18 A3009 RMK A01 T02210176  RH  076%=      5-min Rain = 0
KPG1 111102Z 01004KT 22/18 A3009 RMK A01 T02210177  RH  076%=      5-min Rain = 0
KPG1 111103Z 02003KT 22/18 A301 RMK A01 T02200176  RH  076%=      5-min Rain = 0
KPG1 111104Z 02003KT 22/18 A301 RMK A01 T02210176  RH  076%=      5-min Rain = 0
KPG1 111105Z 02004KT 22/18 A301 RMK A01 T02200177  RH  076%=      5-min Rain = 0
KPG1 111106Z 02004KT 22/18 A301 RMK A01 T02200177  RH  076%=      5-min Rain = 0
KPG1 111107Z 01005KT 22/18 A301 RMK A01 T02190177  RH  077%=      5-min Rain = 0
KPG1 111108Z 01005KT 22/18 A301 RMK A01 T02170177  RH  078%=      5-min Rain = 0
KPG1 111109Z 01005KT 22/18 A301 RMK A01 T02160177  RH  078%=      5-min Rain = 0
KPG1 111110Z 02006KT 22/18 A301 RMK A01 T02160176  RH  078%=      5-min Rain = 0
KPG1 111111Z 02005KT 22/18 A301 RMK A01 T02180177  RH  077%=      5-min Rain = 0
KPG1 111112Z 02005KT 22/18 A301 RMK A01 T02200176  RH  076%=      5-min Rain = 0
KPG1 111113Z 03005KT 22/18 A301 RMK A01 T02220176  RH  075%=      5-min Rain = 0
KPG1 111114Z 03005KT 22/18 A301 RMK A01 T02230176  RH  074%=      5-min Rain = 0
KPG1 111115Z 03005KT 22/18 A301 RMK A01 T02240176  RH  074%=      5-min Rain = 0
KPG1 111116Z 03005KT 22/18 A301 RMK A01 T02230176  RH  075%=      5-min Rain = 0
KPG1 111117Z 02005KT 22/18 A301 RMK A01 T02220177  RH  075%=      5-min Rain = 0
KPG1 111118Z 02005KT 22/18 A301 RMK A01 T02220176  RH  075%=      5-min Rain = 0
KPG1 111119Z 02005KT 22/18 A301 RMK A01 T02220176  RH  075%=      5-min Rain = 0
KPG1 111120Z 03005KT 22/18 A301 RMK A01 T02220177  RH  076%=      5-min Rain = 0
KPG1 111121Z 03005KT 22/18 A301 RMK A01 T02210176  RH  076%=      5-min Rain = 0
KPG1 111122Z 03005KT 22/18 A301 RMK A01 T02210177  RH  076%=      5-min Rain = 0
KPG1 111123Z 03005KT 22/18 A301 RMK A01 T02200177  RH  076%=      5-min Rain = 0
KPG1 111124Z 04005KT 22/18 A301 RMK A01 T02200177  RH  077%=      5-min Rain = 0
KPG1 111125Z 04005KT 22/18 A301 RMK A01 T02200176  RH  076%=      5-min Rain = 0
KPG1 111126Z 04005KT 22/18 A301 RMK A01 T02200177  RH  076%=      5-min Rain = 0
KPG1 111127Z 04004KT 22/18 A301 RMK A01 T02200177  RH  076%=      5-min Rain = 0
KPG1 111128Z 05005KT 22/18 A301 RMK A01 T02200177  RH  076%=      5-min Rain = 0
KPG1 111129Z 06005KT 22/18 A301 RMK A01 T02190177  RH  077%=      5-min Rain = 0
KPG1 111130Z 05004KT 22/18 A301 RMK A01 T02190176  RH  077%=      5-min Rain = 0
KPG1 111131Z 05004KT 22/18 A301 RMK A01 T02190176  RH  077%=      5-min Rain = 0
KPG1 111132Z 05004KT 22/18 A301 RMK A01 T02190177  RH  077%=      5-min Rain = 0
KPG1 111133Z 05004KT 22/18 A301 RMK A01 T02190177  RH  077%=      5-min Rain = 0
KPG1 111134Z 04004KT 22/18 A301 RMK A01 T02190177  RH  077%=      5-min Rain = 0
KPG1 111135Z 03003KT 22/18 A301 RMK A01 T02180177  RH  077%=      5-min Rain = 0
KPG1 111136Z 02003KT 22/18 A301 RMK A01 T02170177  RH  078%=      5-min Rain = 0
KPG1 111137Z 04004KT 22/18 A301 RMK A01 T02170176  RH  078%=      5-min Rain = 0
KPG1 111138Z 03004KT 22/18 A301 RMK A01 T02180175  RH  077%=      5-min Rain = 0
KPG1 111139Z 01004KT 22/18 A301 RMK A01 T02210176  RH  076%=      5-min Rain = 0
KPG1 111140Z 01004KT 22/18 A301 RMK A01 T02220176  RH  075%=      5-min Rain = 0
KPG1 111141Z 03003KT 22/18 A301 RMK A01 T02230176  RH  075%=      5-min Rain = 0
KPG1 111142Z 01003KT 22/18 A301 RMK A01 T02220176  RH  075%=      5-min Rain = 0
KPG1 111143Z 01004KT 22/18 A301 RMK A01 T02220176  RH  075%=      5-min Rain = 0
KPG1 111144Z 05003KT 22/18 A301 RMK A01 T02210176  RH  076%=      5-min Rain = 0
KPG1 111145Z 04004KT 22/18 A301 RMK A01 T02190176  RH  076%=      5-min Rain = 0
KPG1 111146Z 05004KT 22/17 A301 RMK A01 T02190174  RH  076%=      5-min Rain = 0
KPG1 111147Z 07005KT 22/18 A301 RMK A01 T02200175  RH  075%=      5-min Rain = 0
KPG1 111148Z 06005KT 22/18 A301 RMK A01 T02210175  RH  075%=      5-min Rain = 0
KPG1 111149Z 05004KT 22/18 A301 RMK A01 T02210175  RH  075%=      5-min Rain = 0
KPG1 111150Z 03004KT 22/18 A301 RMK A01 T02210176  RH  075%=      5-min Rain = 0
KPG1 111151Z 04003KT 22/18 A301 RMK A01 T02200175  RH  075%=      5-min Rain = 0
KPG1 111152Z 05002KT 22/18 A301 RMK A01 T02200176  RH  076%=      5-min Rain = 0
KPG1 111153Z 06003KT 22/18 A3011 RMK A01 T02190176  RH  076%=      5-min Rain = 0
KPG1 111154Z 06003KT 22/18 A3011 RMK A01 T02180175  RH  076%=      5-min Rain = 0
KPG1 111155Z 05003KT 22/18 A3011 RMK A01 T02180175  RH  076%=      5-min Rain = 0
KPG1 111156Z 05004KT 22/18 A3011 RMK A01 T02180175  RH  077%=      5-min Rain = 0
KPG1 111157Z 05004KT 22/18 A3011 RMK A01 T02180176  RH  077%=      5-min Rain = 0
KPG1 111158Z 04004KT 22/18 A3011 RMK A01 T02180175  RH  076%=      5-min Rain = 0
KPG1 111159Z 04003KT 22/18 A3011 RMK A01 T02190176  RH  077%=      5-min Rain = 0
KPG1 111200Z 03004KT 22/18 A3011 RMK A01 T02180177  RH  077%=      5-min Rain = 0
KPG1 111201Z 04004KT 22/18 A3011 RMK A01 T02160176  RH  078%=      5-min Rain = 0
KPG1 111202Z 04004KT 22/18 A3011 RMK A01 T02150176  RH  079%=      5-min Rain = 0
KPG1 111203Z 05004KT 22/18 A3011 RMK A01 T02150176  RH  078%=      5-min Rain = 0
KPG1 111204Z 06005KT 22/18 A3011 RMK A01 T02150176  RH  078%=      5-min Rain = 0
KPG1 111205Z 06005KT 22/18 A3011 RMK A01 T02160176  RH  078%=      5-min Rain = 0
KPG1 111206Z 06006KT 22/18 A3011 RMK A01 T02160176  RH  078%=      5-min Rain = 0
KPG1 111207Z 06006KT 22/18 A3011 RMK A01 T02160177  RH  078%=      5-min Rain = 0
KPG1 111208Z 06005KT 22/18 A3011 RMK A01 T02150176  RH  078%=      5-min Rain = 0
KPG1 111209Z 06005KT 22/18 A3011 RMK A01 T02150176  RH  078%=      5-min Rain = 0
KPG1 111210Z 05005KT 22/18 A3012 RMK A01 T02160176  RH  078%=      5-min Rain = 0
KPG1 111211Z 05006KT 22/18 A3012 RMK A01 T02160176  RH  078%=      5-min Rain = 0
KPG1 111212Z 05005KT 22/18 A3012 RMK A01 T02160176  RH  078%=      5-min Rain = 0
KPG1 111213Z 05005KT 22/18 A3012 RMK A01 T02170177  RH  078%=      5-min Rain = 0
KPG1 111214Z 05004KT 22/18 A3012 RMK A01 T02160177  RH  078%=      5-min Rain = 0
KPG1 111215Z 05005KT 22/18 A3012 RMK A01 T02160176  RH  078%=      5-min Rain = 0
KPG1 111216Z 06006KT 22/18 A3012 RMK A01 T02160176  RH  078%=      5-min Rain = 0
KPG1 111217Z 06007KT 22/18 A3012 RMK A01 T02170176  RH  078%=      5-min Rain = 0
KPG1 111218Z 06007KT 22/18 A3012 RMK A01 T02180176  RH  077%=      5-min Rain = 0
KPG1 111219Z 06007KT 22/18 A3012 RMK A01 T02190176  RH  076%=      5-min Rain = 0
KPG1 111220Z 06007KT 22/18 A3012 RMK A01 T02210176  RH  075%=      5-min Rain = 0
KPG1 111221Z 06007KT 22/18 A3012 RMK A01 T02220176  RH  075%=      5-min Rain = 0
KPG1 111222Z 06007KT 22/18 A3012 RMK A01 T02230176  RH  075%=      5-min Rain = 0
KPG1 111223Z 06007KT 22/18 A3012 RMK A01 T02230175  RH  074%=      5-min Rain = 0
KPG1 111224Z 06007KT 22/18 A3012 RMK A01 T02230176  RH  075%=      5-min Rain = 0
KPG1 111225Z 06007KT 22/18 A3012 RMK A01 T02230176  RH  074%=      5-min Rain = 0
KPG1 111226Z 06007KT 22/18 A3012 RMK A01 T02230176  RH  074%=      5-min Rain = 0
KPG1 111227Z 06007KT 22/18 A3012 RMK A01 T02230176  RH  074%=      5-min Rain = 0
KPG1 111228Z 06007KT 22/18 A3012 RMK A01 T02230176  RH  074%=      5-min Rain = 0
KPG1 111229Z 06007KT 22/18 A3012 RMK A01 T02240175  RH  074%=      5-min Rain = 0
KPG1 111230Z 06006KT 22/18 A3012 RMK A01 T02240175  RH  074%=      5-min Rain = 0
KPG1 111231Z 06006KT 23/18 A3012 RMK A01 T02250175  RH  073%=      5-min Rain = 0
KPG1 111232Z 06005KT 23/18 A3012 RMK A01 T02250175  RH  073%=      5-min Rain = 0
KPG1 111233Z 08002KT 23/18 A3012 RMK A01 T02250176  RH  074%=      5-min Rain = 0
KPG1 111234Z 18001KT 23/18 A3012 RMK A01 T02250180  RH  076%=      5-min Rain = 0
KPG1 111235Z 17002KT 22/18 A3012 RMK A01 T02210182  RH  079%=      5-min Rain = 0
KPG1 111236Z 18002KT 22/18 A3012 RMK A01 T02160182  RH  081%=      5-min Rain = 0
KPG1 111237Z 21002KT 21/18 A3012 RMK A01 T02130182  RH  082%=      5-min Rain = 0
KPG1 111238Z 24000KT 21/18 A3012 RMK A01 T02110183  RH  084%=      5-min Rain = 0
KPG1 111239Z 29001KT 21/18 A3012 RMK A01 T02110183  RH  084%=      5-min Rain = 0
KPG1 111240Z 30002KT 21/18 A3012 RMK A01 T02100182  RH  084%=      5-min Rain = 0
KPG1 111241Z 31002KT 21/18 A3012 RMK A01 T02100181  RH  084%=      5-min Rain = 0
KPG1 111242Z 34002KT 21/18 A3012 RMK A01 T02100180  RH  083%=      5-min Rain = 0
KPG1 111243Z 00002KT 21/18 A3012 RMK A01 T02110180  RH  082%=      5-min Rain = 0
KPG1 111244Z 02002KT 21/18 A3013 RMK A01 T02140181  RH  081%=      5-min Rain = 0
KPG1 111245Z 04001KT 22/18 A3013 RMK A01 T02160184  RH  082%=      5-min Rain = 0
KPG1 111246Z 04001KT 22/19 A3013 RMK A01 T02170185  RH  082%=      5-min Rain = 0
KPG1 111247Z 36003KT 22/19 A3013 RMK A01 T02170186  RH  082%=      5-min Rain = 0
KPG1 111248Z 01004KT 22/18 A3013 RMK A01 T02190182  RH  080%=      5-min Rain = 0
KPG1 111249Z 05002KT 22/18 A3013 RMK A01 T02210183  RH  079%=      5-min Rain = 0
KPG1 111250Z 06002KT 22/18 A3013 RMK A01 T02230183  RH  078%=      5-min Rain = 0
KPG1 111251Z 06002KT 22/18 A3013 RMK A01 T02230184  RH  079%=      5-min Rain = 0
KPG1 111252Z 09002KT 22/18 A3013 RMK A01 T02230184  RH  078%=      5-min Rain = 0
KPG1 111253Z 07002KT 22/18 A3013 RMK A01 T02220184  RH  079%=      5-min Rain = 0
KPG1 111254Z 04003KT 22/18 A3013 RMK A01 T02220184  RH  079%=      5-min Rain = 0
KPG1 111255Z 03003KT 22/18 A3013 RMK A01 T02230182  RH  078%=      5-min Rain = 0
KPG1 111256Z 03003KT 23/18 A3013 RMK A01 T02250182  RH  076%=      5-min Rain = 0
KPG1 111257Z 04004KT 23/18 A3013 RMK A01 T02270182  RH  076%=      5-min Rain = 0
KPG1 111258Z 05005KT 23/18 A3013 RMK A01 T02290179  RH  073%=      5-min Rain = 0
KPG1 111259Z 06006KT 23/18 A3013 RMK A01 T02300176  RH  071%=      5-min Rain = 0
KPG1 111300Z 06006KT 23/17 A3013 RMK A01 T02320174  RH  070%=      5-min Rain = 0
KPG1 111301Z 06007KT 23/17 A3013 RMK A01 T02330174  RH  069%=      5-min Rain = 0
KPG1 111302Z 04007KT 23/17 A3013 RMK A01 T02340174  RH  069%=      5-min Rain = 0
KPG1 111303Z 05007KT 23/17 A3013 RMK A01 T02340174  RH  069%=      5-min Rain = 0
KPG1 111304Z 05008KT 24/17 A3013 RMK A01 T02350172  RH  068%=      5-min Rain = 0
KPG1 111305Z 05007KT 24/17 A3013 RMK A01 T02350171  RH  067%=      5-min Rain = 0
KPG1 111306Z 06007KT 24/17 A3013 RMK A01 T02360171  RH  067%=      5-min Rain = 0
KPG1 111307Z 06007KT 24/17 A3013 RMK A01 T02360172  RH  067%=      5-min Rain = 0
KPG1 111308Z 06007KT 24/17 A3013 RMK A01 T02370172  RH  067%=      5-min Rain = 0
KPG1 111309Z 06007KT 24/17 A3013 RMK A01 T02370173  RH  067%=      5-min Rain = 0
KPG1 111310Z 06006KT 24/17 A3013 RMK A01 T02370173  RH  067%=      5-min Rain = 0
KPG1 111311Z 06006KT 24/17 A3013 RMK A01 T02380173  RH  067%=      5-min Rain = 0
KPG1 111312Z 06005KT 24/17 A3014 RMK A01 T02380173  RH  067%=      5-min Rain = 0
KPG1 111313Z 06005KT 24/17 A3014 RMK A01 T02380173  RH  067%=      5-min Rain = 0
KPG1 111314Z 07006KT 24/17 A3014 RMK A01 T02390173  RH  066%=      5-min Rain = 0
KPG1 111315Z 07007KT 24/17 A3014 RMK A01 T02400170  RH  065%=      5-min Rain = 0
KPG1 111316Z 06007KT 24/17 A3014 RMK A01 T02400168  RH  064%=      5-min Rain = 0
KPG1 111317Z 05007KT 24/17 A3014 RMK A01 T02410170  RH  064%=      5-min Rain = 0
KPG1 111318Z 05007KT 24/17 A3014 RMK A01 T02410167  RH  064%=      5-min Rain = 0
KPG1 111319Z 06006KT 24/17 A3014 RMK A01 T02410168  RH  064%=      5-min Rain = 0
KPG1 111320Z 06006KT 24/17 A3014 RMK A01 T02410170  RH  065%=      5-min Rain = 0
KPG1 111321Z 06005KT 24/17 A3014 RMK A01 T02410170  RH  064%=      5-min Rain = 0
KPG1 111322Z 05005KT 24/17 A3014 RMK A01 T02400172  RH  066%=      5-min Rain = 0
KPG1 111323Z 06006KT 24/17 A3014 RMK A01 T02400172  RH  066%=      5-min Rain = 0
KPG1 111324Z 06006KT 24/17 A3014 RMK A01 T02410172  RH  065%=      5-min Rain = 0
KPG1 111325Z 05006KT 24/17 A3014 RMK A01 T02410170  RH  065%=      5-min Rain = 0
KPG1 111326Z 05006KT 24/17 A3014 RMK A01 T02410170  RH  065%=      5-min Rain = 0
KPG1 111327Z 05006KT 24/17 A3014 RMK A01 T02410173  RH  066%=      5-min Rain = 0
KPG1 111328Z 05006KT 24/17 A3014 RMK A01 T02410172  RH  065%=      5-min Rain = 0
KPG1 111329Z 05006KT 24/17 A3014 RMK A01 T02410171  RH  065%=      5-min Rain = 0
KPG1 111330Z 05006KT 24/17 A3014 RMK A01 T02410173  RH  066%=      5-min Rain = 0
KPG1 111331Z 04007KT 24/17 A3014 RMK A01 T02410174  RH  066%=      5-min Rain = 0
KPG1 111332Z 04007KT 24/18 A3014 RMK A01 T02410175  RH  067%=      5-min Rain = 0
KPG1 111333Z 05007KT 24/18 A3014 RMK A01 T02410176  RH  067%=      5-min Rain = 0
KPG1 111334Z 05007KT 24/18 A3014 RMK A01 T02410175  RH  067%=      5-min Rain = 0
KPG1 111335Z 05007KT 24/17 A3014 RMK A01 T02410174  RH  066%=      5-min Rain = 0
KPG1 111336Z 05007KT 24/17 A3014 RMK A01 T02400174  RH  067%=      5-min Rain = 0
KPG1 111337Z 04007KT 24/17 A3014 RMK A01 T02400174  RH  067%=      5-min Rain = 0
KPG1 111338Z 04007KT 24/18 A3014 RMK A01 T02410175  RH  067%=      5-min Rain = 0
KPG1 111339Z 04007KT 24/17 A3014 RMK A01 T02410173  RH  066%=      5-min Rain = 0
KPG1 111340Z 04007KT 24/17 A3014 RMK A01 T02420171  RH  065%=      5-min Rain = 0
KPG1 111341Z 04007KT 24/17 A3014 RMK A01 T02420168  RH  063%=      5-min Rain = 0
KPG1 111342Z 04006KT 24/17 A3014 RMK A01 T02430170  RH  064%=      5-min Rain = 0
KPG1 111343Z 04007KT 24/17 A3014 RMK A01 T02440170  RH  063%=      5-min Rain = 0
KPG1 111344Z 04007KT 25/17 A3014 RMK A01 T02450167  RH  062%=      5-min Rain = 0
KPG1 111345Z 04007KT 25/17 A3014 RMK A01 T02450165  RH  061%=      5-min Rain = 0
KPG1 111346Z 04007KT 25/16 A3014 RMK A01 T02450164  RH  061%=      5-min Rain = 0
KPG1 111347Z 04007KT 25/16 A3014 RMK A01 T02450164  RH  061%=      5-min Rain = 0
KPG1 111348Z 05007KT 25/16 A3014 RMK A01 T02450163  RH  060%=      5-min Rain = 0
KPG1 111349Z 05007KT 25/16 A3014 RMK A01 T02450163  RH  060%=      5-min Rain = 0
KPG1 111350Z 04007KT 25/16 A3015 RMK A01 T02460161  RH  059%=      5-min Rain = 0
KPG1 111351Z 05006KT 25/16 A3015 RMK A01 T02450159  RH  059%=      5-min Rain = 0
KPG1 111352Z 06006KT 25/16 A3015 RMK A01 T02460162  RH  059%=      5-min Rain = 0
KPG1 111353Z 07006KT 25/16 A3015 RMK A01 T02470163  RH  059%=      5-min Rain = 0
KPG1 111354Z 05005KT 25/16 A3015 RMK A01 T02470164  RH  060%=      5-min Rain = 0
KPG1 111355Z 05005KT 25/16 A3015 RMK A01 T02480163  RH  059%=      5-min Rain = 0
KPG1 111356Z 04007KT 25/16 A3015 RMK A01 T02490159  RH  057%=      5-min Rain = 0
KPG1 111357Z 05006KT 25/16 A3015 RMK A01 T02490161  RH  058%=      5-min Rain = 0
KPG1 111358Z 05007KT 25/16 A3015 RMK A01 T02490163  RH  059%=      5-min Rain = 0
KPG1 111359Z 05006KT 25/16 A3015 RMK A01 T02490162  RH  058%=      5-min Rain = 0
KPG1 111400Z 04006KT 25/16 A3015 RMK A01 T02490164  RH  059%=      5-min Rain = 0
KPG1 111401Z 04005KT 25/16 A3015 RMK A01 T02500163  RH  059%=      5-min Rain = 0
KPG1 111402Z 05006KT 25/16 A3015 RMK A01 T02500163  RH  058%=      5-min Rain = 0
KPG1 111403Z 04006KT 25/17 A3015 RMK A01 T02510165  RH  059%=      5-min Rain = 0
KPG1 111404Z 05005KT 25/17 A3015 RMK A01 T02520165  RH  058%=      5-min Rain = 0
KPG1 111405Z 06006KT 25/16 A3015 RMK A01 T02520164  RH  058%=      5-min Rain = 0
KPG1 111406Z 05006KT 25/16 A3015 RMK A01 T02530164  RH  058%=      5-min Rain = 0
KPG1 111407Z 05006KT 25/16 A3015 RMK A01 T02530163  RH  057%=      5-min Rain = 0
KPG1 111408Z 04005KT 25/16 A3015 RMK A01 T02520163  RH  058%=      5-min Rain = 0
KPG1 111409Z 04005KT 25/17 A3015 RMK A01 T02520165  RH  059%=      5-min Rain = 0
KPG1 111410Z 05006KT 25/17 A3015 RMK A01 T02530165  RH  058%=      5-min Rain = 0
KPG1 111411Z 05006KT 25/17 A3015 RMK A01 T02530165  RH  058%=      5-min Rain = 0
KPG1 111412Z 05006KT 25/17 A3015 RMK A01 T02530167  RH  059%=      5-min Rain = 0
KPG1 111413Z 06006KT 25/17 A3015 RMK A01 T02530169  RH  060%=      5-min Rain = 0
KPG1 111414Z 04006KT 25/17 A3015 RMK A01 T02520168  RH  059%=      5-min Rain = 0
KPG1 111415Z 04005KT 25/17 A3015 RMK A01 T02520169  RH  060%=      5-min Rain = 0
KPG1 111416Z 04004KT 25/17 A3015 RMK A01 T02510167  RH  060%=      5-min Rain = 0
KPG1 111417Z 04006KT 25/17 A3015 RMK A01 T02510169  RH  060%=      5-min Rain = 0
KPG1 111418Z 06005KT 25/17 A3015 RMK A01 T02520170  RH  060%=      5-min Rain = 0
KPG1 111419Z 05005KT 25/17 A3015 RMK A01 T02520170  RH  060%=      5-min Rain = 0
KPG1 111420Z 04006KT 25/17 A3015 RMK A01 T02530170  RH  060%=      5-min Rain = 0
KPG1 111421Z 03006KT 25/17 A3015 RMK A01 T02530168  RH  059%=      5-min Rain = 0
KPG1 111422Z 04006KT 25/17 A3015 RMK A01 T02530169  RH  060%=      5-min Rain = 0
KPG1 111423Z 03006KT 25/17 A3015 RMK A01 T02530171  RH  060%=      5-min Rain = 0
KPG1 111424Z 04005KT 25/17 A3015 RMK A01 T02530169  RH  060%=      5-min Rain = 0
KPG1 111425Z 04006KT 25/17 A3015 RMK A01 T02540171  RH  060%=      5-min Rain = 0
KPG1 111426Z 04005KT 26/17 A3015 RMK A01 T02550170  RH  059%=      5-min Rain = 0
KPG1 111427Z 05006KT 26/17 A3015 RMK A01 T02550168  RH  059%=      5-min Rain = 0
KPG1 111428Z 04006KT 26/17 A3015 RMK A01 T02550167  RH  058%=      5-min Rain = 0
KPG1 111429Z 04006KT 25/17 A3015 RMK A01 T02540166  RH  058%=      5-min Rain = 0
KPG1 111430Z 05006KT 25/17 A3015 RMK A01 T02530165  RH  058%=      5-min Rain = 0
KPG1 111431Z 05005KT 25/17 A3015 RMK A01 T02530166  RH  059%=      5-min Rain = 0
KPG1 111432Z 04004KT 25/16 A3015 RMK A01 T02530164  RH  058%=      5-min Rain = 0
KPG1 111433Z 05006KT 25/17 A3015 RMK A01 T02530166  RH  058%=      5-min Rain = 0
KPG1 111434Z 06006KT 25/17 A3015 RMK A01 T02530165  RH  058%=      5-min Rain = 0
KPG1 111435Z 05006KT 25/17 A3015 RMK A01 T02540168  RH  059%=      5-min Rain = 0
KPG1 111436Z 05006KT 26/17 A3015 RMK A01 T02550168  RH  059%=      5-min Rain = 0
KPG1 111437Z 05006KT 26/17 A3015 RMK A01 T02550168  RH  059%=      5-min Rain = 0
KPG1 111438Z 06006KT 25/17 A3015 RMK A01 T02540168  RH  059%=      5-min Rain = 0
KPG1 111439Z 06007KT 25/17 A3015 RMK A01 T02540167  RH  058%=      5-min Rain = 0
KPG1 111440Z 03006KT 25/17 A3015 RMK A01 T02540168  RH  059%=      5-min Rain = 0
KPG1 111441Z 02008KT 25/17 A3015 RMK A01 T02540165  RH  058%=      5-min Rain = 0
KPG1 111442Z 01007KT 25/17 A3015 RMK A01 T02540165  RH  058%=      5-min Rain = 0
KPG1 111443Z 02006KT 25/17 A3015 RMK A01 T02540167  RH  058%=      5-min Rain = 0
KPG1 111444Z 05005KT 26/17 A3015 RMK A01 T02550167  RH  058%=      5-min Rain = 0
KPG1 111445Z 06006KT 26/17 A3015 RMK A01 T02570167  RH  058%=      5-min Rain = 0
KPG1 111446Z 05006KT 26/17 A3015 RMK A01 T02570166  RH  057%=      5-min Rain = 0
KPG1 111447Z 05005KT 26/17 A3015 RMK A01 T02570166  RH  057%=      5-min Rain = 0
KPG1 111448Z 04005KT 26/17 A3015 RMK A01 T02570165  RH  057%=      5-min Rain = 0
KPG1 111449Z 04004KT 26/17 A3015 RMK A01 T02570166  RH  057%=      5-min Rain = 0
KPG1 111450Z 04004KT 26/17 A3015 RMK A01 T02570165  RH  057%=      5-min Rain = 0
KPG1 111451Z 05004KT 26/17 A3015 RMK A01 T02580165  RH  056%=      5-min Rain = 0
KPG1 111452Z 05005KT 26/17 A3015 RMK A01 T02590165  RH  056%=      5-min Rain = 0
KPG1 111453Z 07005KT 26/17 A3015 RMK A01 T02590166  RH  056%=      5-min Rain = 0
KPG1 111454Z 06005KT 26/17 A3015 RMK A01 T02600167  RH  056%=      5-min Rain = 0
KPG1 111455Z 06005KT 26/17 A3015 RMK A01 T02610168  RH  057%=      5-min Rain = 0
KPG1 111456Z 05006KT 26/17 A3015 RMK A01 T02620168  RH  056%=      5-min Rain = 0
KPG1 111457Z 04005KT 26/17 A3015 RMK A01 T02620166  RH  055%=      5-min Rain = 0
KPG1 111458Z 04006KT 26/17 A3015 RMK A01 T02610166  RH  056%=      5-min Rain = 0
KPG1 111459Z 05006KT 26/17 A3015 RMK A01 T02610167  RH  056%=      5-min Rain = 0
KPG1 111500Z 07005KT 26/17 A3015 RMK A01 T02640169  RH  056%=      5-min Rain = 0
KPG1 111501Z 09004KT 27/17 A3015 RMK A01 T02680168  RH  054%=      5-min Rain = 0
KPG1 111502Z 08004KT 27/17 A3015 RMK A01 T02680167  RH  054%=      5-min Rain = 0
KPG1 111503Z 08005KT 27/17 A3015 RMK A01 T02690168  RH  054%=      5-min Rain = 0
KPG1 111504Z 07005KT 27/17 A3015 RMK A01 T02690169  RH  054%=      5-min Rain = 0
KPG1 111505Z 05004KT 27/17 A3015 RMK A01 T02690169  RH  054%=      5-min Rain = 0
KPG1 111506Z 04004KT 27/17 A3015 RMK A01 T02700168  RH  053%=      5-min Rain = 0
KPG1 111507Z 04004KT 27/17 A3015 RMK A01 T02700169  RH  054%=      5-min Rain = 0
KPG1 111508Z 03004KT 27/17 A3015 RMK A01 T02710169  RH  054%=      5-min Rain = 0
KPG1 111509Z 06006KT 27/17 A3015 RMK A01 T02710169  RH  054%=      5-min Rain = 0
KPG1 111510Z 06004KT 27/17 A3015 RMK A01 T02710169  RH  054%=      5-min Rain = 0
KPG1 111511Z 06005KT 27/17 A3015 RMK A01 T02710167  RH  053%=      5-min Rain = 0
KPG1 111512Z 06003KT 27/16 A3015 RMK A01 T02700164  RH  052%=      5-min Rain = 0
KPG1 111513Z 03002KT 27/17 A3015 RMK A01 T02680165  RH  053%=      5-min Rain = 0
KPG1 111514Z 03004KT 27/17 A3015 RMK A01 T02690166  RH  053%=      5-min Rain = 0
KPG1 111515Z 02005KT 27/17 A3015 RMK A01 T02700169  RH  054%=      5-min Rain = 0
KPG1 111516Z 06005KT 27/17 A3015 RMK A01 T02720170  RH  054%=      5-min Rain = 0
KPG1 111517Z 07004KT 27/17 A3015 RMK A01 T02710166  RH  052%=      5-min Rain = 0
KPG1 111518Z 08006KT 27/17 A3015 RMK A01 T02700166  RH  053%=      5-min Rain = 0
KPG1 111519Z 07006KT 27/17 A3015 RMK A01 T02690167  RH  054%=      5-min Rain = 0
KPG1 111520Z 09006KT 27/17 A3015 RMK A01 T02680168  RH  054%=      5-min Rain = 0
KPG1 111521Z 09006KT 27/17 A3015 RMK A01 T02680167  RH  054%=      5-min Rain = 0
KPG1 111522Z 08005KT 27/17 A3015 RMK A01 T02680166  RH  053%=      5-min Rain = 0
KPG1 111523Z 07004KT 27/17 A3015 RMK A01 T02670167  RH  054%=      5-min Rain = 0
KPG1 111524Z 08004KT 27/17 A3015 RMK A01 T02680168  RH  054%=      5-min Rain = 0
KPG1 111525Z 08004KT 27/17 A3015 RMK A01 T02700169  RH  054%=      5-min Rain = 0
KPG1 111526Z 07002KT 27/17 A3015 RMK A01 T02720168  RH  053%=      5-min Rain = 0
KPG1 111527Z 04003KT 27/17 A3015 RMK A01 T02720168  RH  053%=      5-min Rain = 0
KPG1 111528Z 07005KT 27/17 A3015 RMK A01 T02730169  RH  053%=      5-min Rain = 0
KPG1 111529Z 11005KT 28/17 A3015 RMK A01 T02770171  RH  053%=      5-min Rain = 0
KPG1 111530Z 12005KT 28/17 A3015 RMK A01 T02790166  RH  050%=      5-min Rain = 0
KPG1 111531Z 14003KT 28/17 A3015 RMK A01 T02790165  RH  050%=      5-min Rain = 0
KPG1 111532Z 15001KT 28/16 A3015 RMK A01 T02790160  RH  048%=      5-min Rain = 0
KPG1 111533Z 14001KT 28/16 A3015 RMK A01 T02780159  RH  048%=      5-min Rain = 0
KPG1 111534Z 11002KT 28/16 A3015 RMK A01 T02780162  RH  049%=      5-min Rain = 0
KPG1 111535Z 12003KT 28/16 A3015 RMK A01 T02790161  RH  049%=      5-min Rain = 0
KPG1 111536Z 20006KT 28/16 A3015 RMK A01 T02790160  RH  048%=      5-min Rain = 0
KPG1 111537Z 21005KT 28/16 A3014 RMK A01 T02750161  RH  050%=      5-min Rain = 0
KPG1 111538Z 19005KT 27/16 A3014 RMK A01 T02740161  RH  050%=      5-min Rain = 0
KPG1 111539Z 21003KT 27/16 A3014 RMK A01 T02730163  RH  051%=      5-min Rain = 0
KPG1 111540Z 18002KT 27/16 A3014 RMK A01 T02740161  RH  050%=      5-min Rain = 0
KPG1 111541Z 15003KT 28/16 A3014 RMK A01 T02750163  RH  050%=      5-min Rain = 0
KPG1 111542Z 11003KT 28/16 A3014 RMK A01 T02760162  RH  050%=      5-min Rain = 0
KPG1 111543Z 13006KT 28/16 A3014 RMK A01 T02760163  RH  050%=      5-min Rain = 0
KPG1 111544Z 16006KT 28/16 A3015 RMK A01 T02760162  RH  050%=      5-min Rain = 0
KPG1 111545Z 16004KT 28/16 A3015 RMK A01 T02760161  RH  049%=      5-min Rain = 0
KPG1 111546Z 15001KT 28/16 A3015 RMK A01 T02760162  RH  050%=      5-min Rain = 0
KPG1 111547Z 20002KT 28/16 A3015 RMK A01 T02770162  RH  050%=      5-min Rain = 0
KPG1 111548Z 21002KT 28/16 A3015 RMK A01 T02780163  RH  049%=      5-min Rain = 0
KPG1 111549Z 20005KT 28/16 A3015 RMK A01 T02800163  RH  049%=      5-min Rain = 0
KPG1 111550Z 19004KT 28/16 A3015 RMK A01 T02800164  RH  049%=      5-min Rain = 0
KPG1 111551Z 20004KT 28/16 A3015 RMK A01 T02800163  RH  049%=      5-min Rain = 0
KPG1 111552Z 19005KT 28/16 A3014 RMK A01 T02810164  RH  049%=      5-min Rain = 0
KPG1 111553Z 22003KT 28/17 A3014 RMK A01 T02810165  RH  049%=      5-min Rain = 0
KPG1 111554Z 18002KT 28/16 A3014 RMK A01 T02820161  RH  048%=      5-min Rain = 0
KPG1 111555Z 15006KT 28/16 A3014 RMK A01 T02820164  RH  048%=      5-min Rain = 0
KPG1 111556Z 17003KT 28/16 A3014 RMK A01 T02820158  RH  047%=      5-min Rain = 0
KPG1 111557Z 14002KT 28/16 A3014 RMK A01 T02810161  RH  048%=      5-min Rain = 0
KPG1 111558Z 07004KT 28/16 A3014 RMK A01 T02820160  RH  048%=      5-min Rain = 0
KPG1 111559Z 09004KT 28/16 A3014 RMK A01 T02830159  RH  047%=      5-min Rain = 0
KPG1 111600Z 12004KT 28/16 A3014 RMK A01 T02830160  RH  047%=      5-min Rain = 0
KPG1 111601Z 15006KT 28/16 A3014 RMK A01 T02830161  RH  047%=      5-min Rain = 0
KPG1 111602Z 14004KT 28/16 A3014 RMK A01 T02830160  RH  047%=      5-min Rain = 0
KPG1 111603Z 15005KT 28/16 A3014 RMK A01 T02820162  RH  048%=      5-min Rain = 0
KPG1 111604Z 15005KT 28/16 A3014 RMK A01 T02820161  RH  048%=      5-min Rain = 0
KPG1 111605Z 13005KT 28/16 A3014 RMK A01 T02820159  RH  047%=      5-min Rain = 0
KPG1 111606Z 15002KT 28/16 A3014 RMK A01 T02820160  RH  047%=      5-min Rain = 0
KPG1 111607Z 21004KT 28/16 A3014 RMK A01 T02840161  RH  047%=      5-min Rain = 0
KPG1 111608Z 18007KT 29/16 A3014 RMK A01 T02860159  RH  046%=      5-min Rain = 0
KPG1 111609Z 16007KT 29/16 A3014 RMK A01 T02870158  RH  045%=      5-min Rain = 0
KPG1 111610Z 18002KT 29/15 A3014 RMK A01 T02860154  RH  045%=      5-min Rain = 0
KPG1 111611Z 14002KT 28/15 A3014 RMK A01 T02840154  RH  045%=      5-min Rain = 0
KPG1 111612Z 12003KT 28/16 A3014 RMK A01 T02840157  RH  046%=      5-min Rain = 0
KPG1 111613Z 12005KT 29/16 A3014 RMK A01 T02860157  RH  045%=      5-min Rain = 0
KPG1 111614Z 12003KT 29/16 A3014 RMK A01 T02860157  RH  045%=      5-min Rain = 0
KPG1 111615Z 12002KT 29/16 A3014 RMK A01 T02850157  RH  046%=      5-min Rain = 0
KPG1 111616Z 09004KT 29/16 A3014 RMK A01 T02850160  RH  047%=      5-min Rain = 0
KPG1 111617Z 11005KT 29/16 A3014 RMK A01 T02880160  RH  046%=      5-min Rain = 0
KPG1 111618Z 13005KT 29/16 A3014 RMK A01 T02920162  RH  045%=      5-min Rain = 0
KPG1 111619Z 11005KT 29/16 A3014 RMK A01 T02940161  RH  045%=      5-min Rain = 0
KPG1 111620Z 14004KT 29/16 A3014 RMK A01 T02930159  RH  044%=      5-min Rain = 0
KPG1 111621Z 10002KT 29/16 A3014 RMK A01 T02930159  RH  044%=      5-min Rain = 0
KPG1 111622Z 12004KT 30/16 A3014 RMK A01 T02950158  RH  043%=      5-min Rain = 0
KPG1 111623Z 11004KT 29/16 A3014 RMK A01 T02940155  RH  043%=      5-min Rain = 0
KPG1 111624Z 08005KT 29/16 A3014 RMK A01 T02920160  RH  045%=      5-min Rain = 0
KPG1 111625Z 10007KT 29/16 A3014 RMK A01 T02940160  RH  044%=      5-min Rain = 0
KPG1 111626Z 11004KT 30/16 A3014 RMK A01 T02950157  RH  043%=      5-min Rain = 0
KPG1 111627Z 11003KT 29/16 A3014 RMK A01 T02940158  RH  044%=      5-min Rain = 0
KPG1 111628Z 08003KT 30/16 A3014 RMK A01 T02950159  RH  044%=      5-min Rain = 0
KPG1 111629Z 11004KT 30/16 A3014 RMK A01 T02980160  RH  043%=      5-min Rain = 0
KPG1 111630Z 08004KT 30/16 A3014 RMK A01 T03000157  RH  042%=      5-min Rain = 0
KPG1 111631Z 10005KT 30/16 A3014 RMK A01 T03000157  RH  042%=      5-min Rain = 0
KPG1 111632Z 14005KT 30/16 A3014 RMK A01 T02970157  RH  043%=      5-min Rain = 0
KPG1 111633Z 14007KT 30/16 A3014 RMK A01 T02970159  RH  043%=      5-min Rain = 0
KPG1 111634Z 15005KT 30/15 A3014 RMK A01 T02980150  RH  041%=      5-min Rain = 0
KPG1 111635Z 19002KT 30/15 A3014 RMK A01 T02970151  RH  041%=      5-min Rain = 0
KPG1 111636Z 17006KT 30/15 A3014 RMK A01 T02980151  RH  041%=      5-min Rain = 0
KPG1 111637Z 17008KT 30/15 A3014 RMK A01 T03000150  RH  040%=      5-min Rain = 0
KPG1 111638Z 18010KT 30/14 A3014 RMK A01 T03020142  RH  038%=      5-min Rain = 0
KPG1 111639Z 15010G16KT 30/14 A3014 RMK A01 T03020143  RH  038%=      5-min Rain = 0
KPG1 111640Z 15006KT 30/15 A3014 RMK A01 T03040147  RH  039%=      5-min Rain = 0
KPG1 111641Z 12005KT 31/15 A3014 RMK A01 T03060146  RH  038%=      5-min Rain = 0
KPG1 111642Z 13004KT 31/14 A3014 RMK A01 T03060144  RH  037%=      5-min Rain = 0
KPG1 111643Z 17006KT 31/14 A3014 RMK A01 T03050143  RH  037%=      5-min Rain = 0
KPG1 111644Z 17009KT 31/14 A3013 RMK A01 T03050139  RH  036%=      5-min Rain = 0
KPG1 111645Z 18008KT 31/14 A3014 RMK A01 T03050140  RH  037%=      5-min Rain = 0
KPG1 111646Z 18006KT 30/14 A3013 RMK A01 T03030139  RH  037%=      5-min Rain = 0
KPG1 111647Z 17007KT 30/14 A3013 RMK A01 T03010142  RH  038%=      5-min Rain = 0
KPG1 111648Z 15009KT 30/14 A3013 RMK A01 T03020144  RH  038%=      5-min Rain = 0
KPG1 111649Z 14007KT 30/14 A3013 RMK A01 T03040139  RH  037%=      5-min Rain = 0
KPG1 111650Z 16008KT 30/14 A3013 RMK A01 T03040135  RH  036%=      5-min Rain = 0
KPG1 111651Z 17011KT 31/13 A3013 RMK A01 T03050134  RH  035%=      5-min Rain = 0
KPG1 111652Z 16010KT 31/13 A3013 RMK A01 T03050134  RH  035%=      5-min Rain = 0
KPG1 111653Z 16008KT 31/13 A3013 RMK A01 T03050129  RH  034%=      5-min Rain = 0
KPG1 111654Z 16005KT 30/13 A3013 RMK A01 T03040131  RH  035%=      5-min Rain = 0
KPG1 111655Z 18005KT 30/13 A3013 RMK A01 T03030132  RH  035%=      5-min Rain = 0
KPG1 111656Z 18009KT 30/13 A3013 RMK A01 T03040132  RH  035%=      5-min Rain = 0
KPG1 111657Z 18008KT 30/13 A3013 RMK A01 T03040130  RH  034%=      5-min Rain = 0
KPG1 111658Z 19006KT 30/13 A3013 RMK A01 T03040131  RH  035%=      5-min Rain = 0
KPG1 111659Z 20008KT 31/13 A3013 RMK A01 T03050134  RH  035%=      5-min Rain = 0
KPG1 111700Z 19009KT 31/13 A3013 RMK A01 T03050134  RH  035%=      5-min Rain = 0
KPG1 111701Z 19007KT 31/13 A3013 RMK A01 T03060134  RH  035%=      5-min Rain = 0
KPG1 111702Z 19007KT 31/13 A3013 RMK A01 T03060134  RH  035%=      5-min Rain = 0
KPG1 111703Z 20008KT 31/14 A3013 RMK A01 T03050138  RH  036%=      5-min Rain = 0
KPG1 111704Z 21007KT 31/14 A3013 RMK A01 T03050140  RH  037%=      5-min Rain = 0
KPG1 111705Z 17006KT 31/14 A3013 RMK A01 T03070142  RH  037%=      5-min Rain = 0
KPG1 111706Z 16006KT 31/14 A3013 RMK A01 T03080140  RH  036%=      5-min Rain = 0
KPG1 111707Z 15009KT 31/14 A3013 RMK A01 T03090136  RH  035%=      5-min Rain = 0
KPG1 111708Z 17009KT 31/13 A3013 RMK A01 T03120129  RH  033%=      5-min Rain = 0
KPG1 111709Z 15009KT 31/13 A3013 RMK A01 T03130126  RH  032%=      5-min Rain = 0
KPG1 111710Z 15007KT 31/13 A3013 RMK A01 T03130125  RH  032%=      5-min Rain = 0
KPG1 111711Z 15008KT 31/13 A3013 RMK A01 T03120130  RH  033%=      5-min Rain = 0
KPG1 111712Z 16010G15KT 31/12 A3013 RMK A01 T03130122  RH  031%=      5-min Rain = 0
KPG1 111713Z 16008KT 31/12 A3013 RMK A01 T03110121  RH  031%=      5-min Rain = 0
KPG1 111714Z 16006G11KT 31/12 A3013 RMK A01 T03080122  RH  032%=      5-min Rain = 0
KPG1 111715Z 19008KT 31/13 A3013 RMK A01 T03080125  RH  033%=      5-min Rain = 0
KPG1 111716Z 19008KT 31/13 A3013 RMK A01 T03100127  RH  032%=      5-min Rain = 0
KPG1 111717Z 20009KT 31/13 A3013 RMK A01 T03110130  RH  033%=      5-min Rain = 0
KPG1 111718Z 19007KT 31/13 A3013 RMK A01 T03110130  RH  033%=      5-min Rain = 0
KPG1 111719Z 19006KT 31/13 A3013 RMK A01 T03100128  RH  033%=      5-min Rain = 0
KPG1 111720Z 17007KT 31/13 A3013 RMK A01 T03090131  RH  034%=      5-min Rain = 0
KPG1 111721Z 15009KT 31/12 A3013 RMK A01 T03110122  RH  032%=      5-min Rain = 0
KPG1 111722Z 13005KT 31/12 A3013 RMK A01 T03110119  RH  031%=      5-min Rain = 0
KPG1 111723Z 14004KT 31/12 A3013 RMK A01 T03110122  RH  031%=      5-min Rain = 0
KPG1 111724Z 17006G12KT 31/12 A3013 RMK A01 T03120119  RH  031%=      5-min Rain = 0
KPG1 111725Z 16011KT 31/12 A3013 RMK A01 T03120119  RH  031%=      5-min Rain = 0
KPG1 111726Z 16010KT 31/12 A3013 RMK A01 T03120116  RH  030%=      5-min Rain = 0
KPG1 111727Z 15007KT 31/12 A3013 RMK A01 T03130118  RH  030%=      5-min Rain = 0
KPG1 111728Z 15008KT 31/12 A3013 RMK A01 T03130118  RH  030%=      5-min Rain = 0
KPG1 111729Z 15011KT 32/12 A3012 RMK A01 T03150119  RH  030%=      5-min Rain = 0
KPG1 111730Z 16010KT 32/11 A3012 RMK A01 T03180114  RH  029%=      5-min Rain = 0
KPG1 111731Z 16010KT 32/11 A3012 RMK A01 T03180114  RH  029%=      5-min Rain = 0
KPG1 111732Z 15007KT 32/11 A3012 RMK A01 T03150114  RH  029%=      5-min Rain = 0
KPG1 111733Z 16006KT 31/12 A3012 RMK A01 T03140117  RH  030%=      5-min Rain = 0
KPG1 111734Z 16006KT 32/12 A3012 RMK A01 T03150120  RH  030%=      5-min Rain = 0
KPG1 111735Z 17010KT 32/12 A3012 RMK A01 T03170119  RH  030%=      5-min Rain = 0
KPG1 111736Z 16007KT 32/11 A3012 RMK A01 T03170113  RH  029%=      5-min Rain = 0
KPG1 111737Z 18007KT 32/11 A3012 RMK A01 T03170113  RH  029%=      5-min Rain = 0
KPG1 111738Z 17006KT 32/11 A3012 RMK A01 T03180111  RH  028%=      5-min Rain = 0
KPG1 111739Z 17005KT 32/12 A3012 RMK A01 T03170116  RH  029%=      5-min Rain = 0
KPG1 111740Z 18008KT 32/12 A3012 RMK A01 T03200118  RH  029%=      5-min Rain = 0
KPG1 111741Z 18008KT 32/11 A3012 RMK A01 T03200114  RH  028%=      5-min Rain = 0
KPG1 111742Z 19007KT 32/11 A3012 RMK A01 T03190107  RH  027%=      5-min Rain = 0
KPG1 111743Z 20008KT 32/11 A3012 RMK A01 T03180110  RH  028%=      5-min Rain = 0
KPG1 111744Z 21008KT 32/11 A3012 RMK A01 T03190108  RH  027%=      5-min Rain = 0
KPG1 111745Z 19008G13KT 32/11 A3012 RMK A01 T03180112  RH  028%=      5-min Rain = 0
KPG1 111746Z 19010KT 32/11 A3012 RMK A01 T03200111  RH  028%=      5-min Rain = 0
KPG1 111747Z 16010KT 32/10 A3012 RMK A01 T03230100  RH  025%=      5-min Rain = 0
KPG1 111748Z 18006KT 32/10 A3012 RMK A01 T03210095  RH  025%=      5-min Rain = 0
KPG1 111749Z 16005KT 32/10 A3012 RMK A01 T03200097  RH  025%=      5-min Rain = 0
KPG1 111750Z 14006KT 32/10 A3012 RMK A01 T03210102  RH  026%=      5-min Rain = 0
KPG1 111751Z 17007KT 32/11 A3011 RMK A01 T03220105  RH  027%=      5-min Rain = 0
KPG1 111752Z 22005KT 32/11 A3011 RMK A01 T03200110  RH  028%=      5-min Rain = 0
KPG1 111753Z 20006KT 32/11 A3011 RMK A01 T03180113  RH  029%=      5-min Rain = 0
KPG1 111754Z 15009KT 32/11 A3011 RMK A01 T03190114  RH  028%=      5-min Rain = 0
KPG1 111755Z 15005KT 32/11 A3011 RMK A01 T03210107  RH  027%=      5-min Rain = 0
KPG1 111756Z 14004KT 32/11 A3011 RMK A01 T03210105  RH  026%=      5-min Rain = 0
KPG1 111757Z 14004KT 32/11 A3011 RMK A01 T03210105  RH  026%=      5-min Rain = 0
KPG1 111758Z 14005KT 32/11 A3011 RMK A01 T03210108  RH  027%=      5-min Rain = 0
KPG1 111759Z 15009KT 32/12 A3011 RMK A01 T03220116  RH  028%=      5-min Rain = 0
KPG1 111800Z 15007KT 32/12 A3011 RMK A01 T03230116  RH  028%=      5-min Rain = 0
KPG1 111801Z 14006KT 32/11 A3011 RMK A01 T03220113  RH  028%=      5-min Rain = 0
KPG1 111802Z 17005G10KT 32/11 A3011 RMK A01 T03220112  RH  028%=      5-min Rain = 0
KPG1 111803Z 20008KT 32/11 A3011 RMK A01 T03240105  RH  026%=      5-min Rain = 0
KPG1 111804Z 21005KT 32/11 A3011 RMK A01 T03240105  RH  026%=      5-min Rain = 0
KPG1 111805Z 19007KT 32/11 A3011 RMK A01 T03230105  RH  026%=      5-min Rain = 0
KPG1 111806Z 18009KT 32/11 A3011 RMK A01 T03230112  RH  027%=      5-min Rain = 0
KPG1 111807Z 20009KT 33/11 A3011 RMK A01 T03250113  RH  027%=      5-min Rain = 0
KPG1 111808Z 17011KT 32/11 A3011 RMK A01 T03240112  RH  027%=      5-min Rain = 0
KPG1 111809Z 17009KT 32/11 A3011 RMK A01 T03230113  RH  028%=      5-min Rain = 0
KPG1 111810Z 19010KT 32/12 A3011 RMK A01 T03220116  RH  028%=      5-min Rain = 0
KPG1 111811Z 20009KT 33/12 A3011 RMK A01 T03250116  RH  028%=      5-min Rain = 0
KPG1 111812Z 18005KT 33/12 A3011 RMK A01 T03250115  RH  028%=      5-min Rain = 0
KPG1 111813Z 16002KT 32/11 A301 RMK A01 T03220114  RH  028%=      5-min Rain = 0
KPG1 111814Z 18001KT 32/12 A301 RMK A01 T03200115  RH  029%=      5-min Rain = 0
KPG1 111815Z 22005KT 32/12 A301 RMK A01 T03190115  RH  029%=      5-min Rain = 0
KPG1 111816Z 22006KT 32/12 A301 RMK A01 T03200116  RH  029%=      5-min Rain = 0
KPG1 111817Z 19009KT 32/12 A301 RMK A01 T03210116  RH  029%=      5-min Rain = 0
KPG1 111818Z 19009KT 32/12 A301 RMK A01 T03230116  RH  028%=      5-min Rain = 0
KPG1 111819Z 20009KT 33/12 A301 RMK A01 T03260117  RH  028%=      5-min Rain = 0
KPG1 111820Z 20009KT 33/12 A301 RMK A01 T03290116  RH  027%=      5-min Rain = 0
KPG1 111821Z 18010KT 33/12 A301 RMK A01 T03300116  RH  027%=      5-min Rain = 0
KPG1 111822Z 17013KT 33/12 A301 RMK A01 T03300116  RH  027%=      5-min Rain = 0
KPG1 111823Z 17011KT 33/11 A301 RMK A01 T03290114  RH  027%=      5-min Rain = 0
KPG1 111824Z 17009KT 33/12 A301 RMK A01 T03270115  RH  027%=      5-min Rain = 0
KPG1 111825Z 19008G14KT 33/12 A301 RMK A01 T03260116  RH  028%=      5-min Rain = 0
KPG1 111826Z 18012KT 33/12 A301 RMK A01 T03290118  RH  028%=      5-min Rain = 0
KPG1 111827Z 20011KT 33/12 A301 RMK A01 T03310116  RH  027%=      5-min Rain = 0
KPG1 111828Z 20011KT 33/11 A301 RMK A01 T03280114  RH  027%=      5-min Rain = 0
KPG1 111829Z 18010KT 33/11 A301 RMK A01 T03260112  RH  027%=      5-min Rain = 0
KPG1 111830Z 19007KT 32/11 A301 RMK A01 T03220110  RH  027%=      5-min Rain = 0
KPG1 111831Z 20008KT 32/11 A301 RMK A01 T03220114  RH  028%=      5-min Rain = 0
KPG1 111832Z 21007KT 32/11 A301 RMK A01 T03240113  RH  027%=      5-min Rain = 0
KPG1 111833Z 20005KT 32/11 A301 RMK A01 T03230112  RH  028%=      5-min Rain = 0
KPG1 111834Z 18003KT 32/11 A301 RMK A01 T03220112  RH  028%=      5-min Rain = 0
KPG1 111835Z 18006KT 32/11 A301 RMK A01 T03220113  RH  028%=      5-min Rain = 0
KPG1 111836Z 19004KT 32/11 A301 RMK A01 T03230111  RH  027%=      5-min Rain = 0
KPG1 111837Z 20003KT 32/11 A301 RMK A01 T03230112  RH  027%=      5-min Rain = 0
KPG1 111838Z 19006KT 32/11 A3009 RMK A01 T03240113  RH  027%=      5-min Rain = 0
KPG1 111839Z 18006KT 33/11 A3009 RMK A01 T03250112  RH  027%=      5-min Rain = 0
KPG1 111840Z 18008KT 33/11 A3009 RMK A01 T03250111  RH  027%=      5-min Rain = 0
KPG1 111841Z 20008KT 33/11 A3009 RMK A01 T03260112  RH  027%=      5-min Rain = 0
KPG1 111842Z 19006KT 33/11 A3009 RMK A01 T03270111  RH  027%=      5-min Rain = 0
KPG1 111843Z 18003KT 33/11 A3009 RMK A01 T03270112  RH  027%=      5-min Rain = 0
KPG1 111844Z 20003KT 33/11 A3009 RMK A01 T03270109  RH  026%=      5-min Rain = 0
KPG1 111845Z 22010KT 33/11 A3009 RMK A01 T03260112  RH  027%=      5-min Rain = 0
KPG1 111846Z 22012KT 33/11 A3009 RMK A01 T03260110  RH  027%=      5-min Rain = 0
KPG1 111847Z 23009KT 33/11 A3009 RMK A01 T03260109  RH  026%=      5-min Rain = 0
KPG1 111848Z 24007KT 32/11 A3009 RMK A01 T03240111  RH  027%=      5-min Rain = 0
KPG1 111849Z 22006KT 32/11 A3009 RMK A01 T03240110  RH  027%=      5-min Rain = 0
KPG1 111850Z 22010KT 33/11 A3009 RMK A01 T03260111  RH  027%=      5-min Rain = 0
KPG1 111851Z 23007KT 33/11 A3009 RMK A01 T03270109  RH  026%=      5-min Rain = 0
KPG1 111852Z 22009KT 33/11 A3009 RMK A01 T03280111  RH  027%=      5-min Rain = 0
KPG1 111853Z 23009KT 33/11 A3009 RMK A01 T03270109  RH  026%=      5-min Rain = 0
KPG1 111854Z 23009KT 33/11 A3009 RMK A01 T03260111  RH  027%=      5-min Rain = 0
KPG1 111855Z 23007KT 33/11 A3009 RMK A01 T03270111  RH  027%=      5-min Rain = 0
KPG1 111856Z 23006KT 33/11 A3009 RMK A01 T03270112  RH  027%=      5-min Rain = 0
KPG1 111857Z 22005KT 33/11 A3009 RMK A01 T03290112  RH  027%=      5-min Rain = 0
KPG1 111858Z 25006KT 33/11 A3008 RMK A01 T03300113  RH  027%=      5-min Rain = 0
KPG1 111859Z 27005KT 33/11 A3008 RMK A01 T03330114  RH  026%=      5-min Rain = 0
KPG1 111900Z 25005KT 33/11 A3008 RMK A01 T03330113  RH  026%=      5-min Rain = 0
KPG1 111901Z 24006KT 33/12 A3008 RMK A01 T03320115  RH  026%=      5-min Rain = 0
KPG1 111902Z 24004KT 33/11 A3008 RMK A01 T03330112  RH  026%=      5-min Rain = 0
KPG1 111903Z 24002KT 33/11 A3008 RMK A01 T03320109  RH  026%=      5-min Rain = 0
KPG1 111904Z 24003KT 33/11 A3008 RMK A01 T03310111  RH  026%=      5-min Rain = 0
KPG1 111905Z 22003KT 33/11 A3008 RMK A01 T03310109  RH  026%=      5-min Rain = 0
KPG1 111906Z 22004KT 33/11 A3008 RMK A01 T03300110  RH  026%=      5-min Rain = 0
KPG1 111907Z 21007KT 33/11 A3008 RMK A01 T03310109  RH  026%=      5-min Rain = 0
KPG1 111908Z 21008KT 33/11 A3008 RMK A01 T03330109  RH  025%=      5-min Rain = 0
KPG1 111909Z 22008KT 34/11 A3008 RMK A01 T03350108  RH  025%=      5-min Rain = 0
KPG1 111910Z 19008KT 33/11 A3008 RMK A01 T03340111  RH  026%=      5-min Rain = 0
KPG1 111911Z 18010KT 34/12 A3008 RMK A01 T03360119  RH  027%=      5-min Rain = 0
KPG1 111912Z 18009KT 34/12 A3008 RMK A01 T03360123  RH  027%=      5-min Rain = 0
KPG1 111913Z 17007KT 34/12 A3008 RMK A01 T03360119  RH  027%=      5-min Rain = 0
KPG1 111914Z 18006KT 33/12 A3008 RMK A01 T03340122  RH  028%=      5-min Rain = 0
KPG1 111915Z 13006KT 34/13 A3008 RMK A01 T03370125  RH  028%=      5-min Rain = 0
KPG1 111916Z 10004KT 34/13 A3008 RMK A01 T03370130  RH  028%=      5-min Rain = 0
KPG1 111917Z 07003KT 34/13 A3007 RMK A01 T03350134  RH  030%=      5-min Rain = 0
KPG1 111918Z 07002KT 34/13 A3007 RMK A01 T03350134  RH  030%=      5-min Rain = 0
KPG1 111919Z 13003G8KT 34/13 A3007 RMK A01 T03360132  RH  029%=      5-min Rain = 0
KPG1 111920Z 14009KT 34/13 A3007 RMK A01 T03380131  RH  029%=      5-min Rain = 0
KPG1 111921Z 14007KT 34/13 A3007 RMK A01 T03400127  RH  028%=      5-min Rain = 0
KPG1 111922Z 12009KT 34/12 A3007 RMK A01 T03360123  RH  027%=      5-min Rain = 0
KPG1 111923Z 13008KT 33/12 A3008 RMK A01 T03310123  RH  028%=      5-min Rain = 0
KPG1 111924Z 12006KT 33/12 A3008 RMK A01 T03290124  RH  029%=      5-min Rain = 0
KPG1 111925Z 10005KT 33/13 A3007 RMK A01 T03290125  RH  029%=      5-min Rain = 0
KPG1 111926Z 11008KT 33/12 A3007 RMK A01 T03290123  RH  028%=      5-min Rain = 0
KPG1 111927Z 11009KT 33/12 A3007 RMK A01 T03300119  RH  028%=      5-min Rain = 0
KPG1 111928Z 11004KT 33/12 A3007 RMK A01 T03290121  RH  028%=      5-min Rain = 0
KPG1 111929Z 15002KT 33/12 A3007 RMK A01 T03310122  RH  028%=      5-min Rain = 0
KPG1 111930Z 10002KT 33/12 A3007 RMK A01 T03320120  RH  028%=      5-min Rain = 0
KPG1 111931Z 09004KT 33/12 A3007 RMK A01 T03330121  RH  028%=      5-min Rain = 0
KPG1 111932Z 07004KT 34/12 A3007 RMK A01 T03350117  RH  027%=      5-min Rain = 0
KPG1 111933Z 05004KT 33/12 A3007 RMK A01 T03340119  RH  027%=      5-min Rain = 0
KPG1 111934Z 08010KT 34/12 A3007 RMK A01 T03350120  RH  027%=      5-min Rain = 0
KPG1 111935Z 06006KT 34/12 A3007 RMK A01 T03350117  RH  027%=      5-min Rain = 0
KPG1 111936Z 05005KT 33/12 A3007 RMK A01 T03320117  RH  027%=      5-min Rain = 0
KPG1 111937Z 03004KT 33/12 A3007 RMK A01 T03290117  RH  027%=      5-min Rain = 0
KPG1 111938Z 02002KT 33/12 A3007 RMK A01 T03300120  RH  028%=      5-min Rain = 0
KPG1 111939Z 01003KT 33/12 A3007 RMK A01 T03320116  RH  027%=      5-min Rain = 0
KPG1 111940Z 05003KT 33/12 A3007 RMK A01 T03320124  RH  028%=      5-min Rain = 0
KPG1 111941Z 06005KT 34/12 A3006 RMK A01 T03370123  RH  027%=      5-min Rain = 0
KPG1 111942Z 06005KT 34/12 A3006 RMK A01 T03390119  RH  026%=      5-min Rain = 0
KPG1 111943Z 04004KT 34/12 A3006 RMK A01 T03360117  RH  026%=      5-min Rain = 0
KPG1 111944Z 01003KT 33/12 A3006 RMK A01 T03340117  RH  027%=      5-min Rain = 0
KPG1 111945Z 34001KT 33/12 A3006 RMK A01 T03330116  RH  027%=      5-min Rain = 0
KPG1 111946Z 35002KT 33/12 A3006 RMK A01 T03330115  RH  026%=      5-min Rain = 0
KPG1 111947Z 33003KT 33/12 A3006 RMK A01 T03340118  RH  027%=      5-min Rain = 0
KPG1 111948Z 03001KT 34/12 A3006 RMK A01 T03360115  RH  026%=      5-min Rain = 0
KPG1 111949Z 08002KT 34/12 A3006 RMK A01 T03370120  RH  027%=      5-min Rain = 0
KPG1 111950Z 08004KT 34/12 A3006 RMK A01 T03400124  RH  027%=      5-min Rain = 0
KPG1 111951Z 07002KT 34/13 A3006 RMK A01 T03400131  RH  028%=      5-min Rain = 0
KPG1 111952Z 08004KT 34/13 A3006 RMK A01 T03380131  RH  029%=      5-min Rain = 0
KPG1 111953Z 26002KT 34/13 A3006 RMK A01 T03370129  RH  028%=      5-min Rain = 0
KPG1 111954Z 10003KT 34/13 A3006 RMK A01 T03400125  RH  027%=      5-min Rain = 0
KPG1 111955Z 09003KT 34/13 A3006 RMK A01 T03410131  RH  028%=      5-min Rain = 0
KPG1 111956Z 11003KT 34/13 A3006 RMK A01 T03400134  RH  029%=      5-min Rain = 0
KPG1 111957Z 06004KT 34/13 A3006 RMK A01 T03400134  RH  029%=      5-min Rain = 0
KPG1 111958Z 04003KT 34/13 A3006 RMK A01 T03400134  RH  029%=      5-min Rain = 0
KPG1 111959Z 02005KT 34/14 A3006 RMK A01 T03400135  RH  029%=      5-min Rain = 0
KPG1 112000Z 01005KT 34/13 A3006 RMK A01 T03390134  RH  029%=      5-min Rain = 0
KPG1 112001Z 01005KT 34/14 A3006 RMK A01 T03390135  RH  029%=      5-min Rain = 0
KPG1 112002Z 00002KT 34/13 A3006 RMK A01 T03370131  RH  029%=      5-min Rain = 0
KPG1 112003Z 13001KT 34/13 A3005 RMK A01 T03350130  RH  029%=      5-min Rain = 0
KPG1 112004Z 04001KT 33/13 A3005 RMK A01 T03340132  RH  029%=      5-min Rain = 0
KPG1 112005Z 03003KT 33/13 A3005 RMK A01 T03340134  RH  030%=      5-min Rain = 0
KPG1 112006Z 06007KT 33/14 A3005 RMK A01 T03330135  RH  030%=      5-min Rain = 0
KPG1 112007Z 08008KT 33/14 A3005 RMK A01 T03320138  RH  031%=      5-min Rain = 0
KPG1 112008Z 08008KT 33/14 A3005 RMK A01 T03330135  RH  030%=      5-min Rain = 0
KPG1 112009Z 07005G10KT 33/14 A3005 RMK A01 T03310136  RH  031%=      5-min Rain = 0
KPG1 112010Z 05010KT 33/14 A3005 RMK A01 T03330138  RH  031%=      5-min Rain = 0
KPG1 112011Z 08009KT 33/14 A3005 RMK A01 T03340136  RH  030%=      5-min Rain = 0
KPG1 112012Z 05008KT 34/14 A3005 RMK A01 T03350138  RH  030%=      5-min Rain = 0
KPG1 112013Z 05008KT 34/13 A3005 RMK A01 T03360133  RH  029%=      5-min Rain = 0
KPG1 112014Z 06007KT 33/13 A3005 RMK A01 T03320133  RH  030%=      5-min Rain = 0
KPG1 112015Z 06008KT 33/13 A3005 RMK A01 T03310134  RH  030%=      5-min Rain = 0
KPG1 112016Z 03008KT 33/14 A3005 RMK A01 T03320136  RH  031%=      5-min Rain = 0
KPG1 112017Z 02006KT 33/14 A3005 RMK A01 T03330135  RH  030%=      5-min Rain = 0
KPG1 112018Z 01007G13KT 33/14 A3005 RMK A01 T03320135  RH  030%=      5-min Rain = 0
KPG1 112019Z 02010KT 33/14 A3004 RMK A01 T03320136  RH  031%=      5-min Rain = 0
KPG1 112020Z 04009KT 33/14 A3004 RMK A01 T03340137  RH  030%=      5-min Rain = 0
KPG1 112021Z 07008KT 33/13 A3004 RMK A01 T03340133  RH  030%=      5-min Rain = 0
KPG1 112022Z 10004KT 34/13 A3005 RMK A01 T03350133  RH  029%=      5-min Rain = 0
KPG1 112023Z 13003KT 34/14 A3004 RMK A01 T03370135  RH  030%=      5-min Rain = 0
KPG1 112024Z 10006KT 34/13 A3004 RMK A01 T03390130  RH  028%=      5-min Rain = 0
KPG1 112025Z 11005KT 34/13 A3004 RMK A01 T03380126  RH  028%=      5-min Rain = 0
KPG1 112026Z 16007KT 34/13 A3004 RMK A01 T03390127  RH  028%=      5-min Rain = 0
KPG1 112027Z 17006KT 34/12 A3004 RMK A01 T03400124  RH  027%=      5-min Rain = 0
KPG1 112028Z 16002KT 34/12 A3004 RMK A01 T03400124  RH  027%=      5-min Rain = 0
KPG1 112029Z 34001KT 34/12 A3004 RMK A01 T03400123  RH  027%=      5-min Rain = 0
KPG1 112030Z 01001KT 34/12 A3004 RMK A01 T03400124  RH  027%=      5-min Rain = 0
KPG1 112031Z 07003KT 34/12 A3004 RMK A01 T03410124  RH  027%=      5-min Rain = 0
KPG1 112032Z 10005KT 34/13 A3004 RMK A01 T03410125  RH  027%=      5-min Rain = 0
KPG1 112033Z 10003KT 34/13 A3004 RMK A01 T03400126  RH  028%=      5-min Rain = 0
KPG1 112034Z 10003KT 34/13 A3004 RMK A01 T03380125  RH  027%=      5-min Rain = 0
KPG1 112035Z 07006KT 34/13 A3004 RMK A01 T03370127  RH  028%=      5-min Rain = 0
KPG1 112036Z 06006KT 34/14 A3004 RMK A01 T03360135  RH  030%=      5-min Rain = 0
KPG1 112037Z 08003KT 34/14 A3004 RMK A01 T03370137  RH  030%=      5-min Rain = 0
KPG1 112038Z 11002KT 34/14 A3004 RMK A01 T03380137  RH  030%=      5-min Rain = 0
KPG1 112039Z 11006KT 34/14 A3004 RMK A01 T03380139  RH  030%=      5-min Rain = 0
KPG1 112040Z 13004KT 34/14 A3004 RMK A01 T03390138  RH  030%=      5-min Rain = 0
KPG1 112041Z 02003G9KT 34/14 A3004 RMK A01 T03380137  RH  030%=      5-min Rain = 0
KPG1 112042Z 06009KT 34/14 A3004 RMK A01 T03400142  RH  030%=      5-min Rain = 0
KPG1 112043Z 06009KT 34/14 A3004 RMK A01 T03440142  RH  030%=      5-min Rain = 0
KPG1 112044Z 05009KT 34/14 A3004 RMK A01 T03430138  RH  029%=      5-min Rain = 0
KPG1 112045Z 02007KT 34/14 A3004 RMK A01 T03400139  RH  030%=      5-min Rain = 0
KPG1 112046Z 05006KT 34/14 A3004 RMK A01 T03400139  RH  030%=      5-min Rain = 0
KPG1 112047Z 06006KT 34/14 A3004 RMK A01 T03390138  RH  030%=      5-min Rain = 0
KPG1 112048Z 04004KT 34/14 A3003 RMK A01 T03360138  RH  030%=      5-min Rain = 0
KPG1 112049Z 05005KT 34/14 A3003 RMK A01 T03370140  RH  030%=      5-min Rain = 0
KPG1 112050Z 02005KT 34/14 A3003 RMK A01 T03380138  RH  030%=      5-min Rain = 0
KPG1 112051Z 35002KT 34/14 A3003 RMK A01 T03380138  RH  030%=      5-min Rain = 0
KPG1 112052Z 30003KT 34/14 A3003 RMK A01 T03380136  RH  030%=      5-min Rain = 0
KPG1 112053Z 33006KT 34/14 A3003 RMK A01 T03380137  RH  030%=      5-min Rain = 0
KPG1 112054Z 35005KT 34/14 A3003 RMK A01 T03380137  RH  030%=      5-min Rain = 0
KPG1 112055Z 02004KT 34/14 A3003 RMK A01 T03370137  RH  030%=      5-min Rain = 0
KPG1 112056Z 02008KT 34/14 A3003 RMK A01 T03370137  RH  030%=      5-min Rain = 0
KPG1 112057Z 03010KT 34/14 A3003 RMK A01 T03390138  RH  030%=      5-min Rain = 0
KPG1 112058Z 03008KT 34/14 A3003 RMK A01 T03400135  RH  029%=      5-min Rain = 0
KPG1 112059Z 01007KT 34/14 A3002 RMK A01 T03400140  RH  030%=      5-min Rain = 0
KPG1 112100Z 01010KT 34/14 A3002 RMK A01 T03430137  RH  029%=      5-min Rain = 0
KPG1 112101Z 03010KT 34/14 A3002 RMK A01 T03420136  RH  029%=      5-min Rain = 0
KPG1 112102Z 10008G14KT 34/14 A3002 RMK A01 T03400136  RH  029%=      5-min Rain = 0
KPG1 112103Z 09007KT 34/14 A3002 RMK A01 T03400136  RH  029%=      5-min Rain = 0
KPG1 112104Z 05013KT 34/14 A3002 RMK A01 T03390136  RH  029%=      5-min Rain = 0
KPG1 112105Z 06011KT 34/13 A3002 RMK A01 T03360133  RH  029%=      5-min Rain = 0
KPG1 112106Z 06010KT 34/13 A3002 RMK A01 T03350134  RH  030%=      5-min Rain = 0
KPG1 112107Z 04010KT 34/13 A3002 RMK A01 T03350134  RH  030%=      5-min Rain = 0
KPG1 112108Z 04009KT 33/13 A3002 RMK A01 T03340133  RH  030%=      5-min Rain = 0
KPG1 112109Z 03007KT 33/13 A3002 RMK A01 T03340134  RH  030%=      5-min Rain = 0
KPG1 112110Z 08005KT 33/13 A3002 RMK A01 T03340134  RH  030%=      5-min Rain = 0
KPG1 112111Z 11005KT 33/13 A3002 RMK A01 T03330132  RH  030%=      5-min Rain = 0
KPG1 112112Z 12003KT 33/13 A3002 RMK A01 T03310130  RH  030%=      5-min Rain = 0
KPG1 112113Z 16002KT 33/13 A3002 RMK A01 T03310132  RH  030%=      5-min Rain = 0
KPG1 112114Z 19002KT 33/13 A3002 RMK A01 T03330132  RH  030%=      5-min Rain = 0
KPG1 112115Z 08002KT 33/13 A3002 RMK A01 T03340132  RH  029%=      5-min Rain = 0
KPG1 112116Z 05002KT 33/13 A3002 RMK A01 T03340130  RH  029%=      5-min Rain = 0
KPG1 112117Z 06005G10KT 33/13 A3002 RMK A01 T03340131  RH  029%=      5-min Rain = 0
KPG1 112118Z 05007KT 34/13 A3002 RMK A01 T03350129  RH  029%=      5-min Rain = 0
KPG1 112119Z 05013KT 34/13 A3002 RMK A01 T03370125  RH  028%=      5-min Rain = 0
KPG1 112120Z 06012KT 34/12 A3001 RMK A01 T03360124  RH  028%=      5-min Rain = 0
KPG1 112121Z 06013KT 34/12 A3001 RMK A01 T03350124  RH  028%=      5-min Rain = 0
KPG1 112122Z 08007G12KT 33/12 A3002 RMK A01 T03340124  RH  028%=      5-min Rain = 0
KPG1 112123Z 15004KT 33/12 A3001 RMK A01 T03340124  RH  028%=      5-min Rain = 0
KPG1 112124Z 13005KT 33/12 A3001 RMK A01 T03320124  RH  028%=      5-min Rain = 0
KPG1 112125Z 09010KT 33/12 A3001 RMK A01 T03320122  RH  028%=      5-min Rain = 0
KPG1 112126Z 11008KT 33/12 A3001 RMK A01 T03300116  RH  027%=      5-min Rain = 0
KPG1 112127Z 16004KT 33/12 A3001 RMK A01 T03290118  RH  028%=      5-min Rain = 0
KPG1 112128Z 17003KT 33/12 A3001 RMK A01 T03290120  RH  028%=      5-min Rain = 0
KPG1 112129Z 12003KT 33/12 A3001 RMK A01 T03310117  RH  027%=      5-min Rain = 0
KPG1 112130Z 09003KT 33/12 A3001 RMK A01 T03330120  RH  027%=      5-min Rain = 0
KPG1 112131Z 09001KT 34/12 A3001 RMK A01 T03350122  RH  027%=      5-min Rain = 0
KPG1 112132Z 15000KT 34/12 A3001 RMK A01 T03390121  RH  027%=      5-min Rain = 0
KPG1 112133Z 02002KT 34/13 A3001 RMK A01 T03420125  RH  027%=      5-min Rain = 0
KPG1 112134Z 02004KT 35/12 A3001 RMK A01 T03450123  RH  026%=      5-min Rain = 0
KPG1 112135Z 03003KT 35/12 A30 RMK A01 T03450124  RH  026%=      5-min Rain = 0
KPG1 112136Z 07003KT 35/13 A30 RMK A01 T03450126  RH  027%=      5-min Rain = 0
KPG1 112137Z 09008KT 35/12 A30 RMK A01 T03480121  RH  025%=      5-min Rain = 0
KPG1 112138Z 11005KT 35/11 A30 RMK A01 T03500113  RH  024%=      5-min Rain = 0
KPG1 112139Z 13003KT 35/12 A30 RMK A01 T03500115  RH  024%=      5-min Rain = 0
KPG1 112140Z 15010G15KT 35/11 A30 RMK A01 T03490111  RH  024%=      5-min Rain = 0
KPG1 112141Z 13012KT 35/11 A30 RMK A01 T03500110  RH  023%=      5-min Rain = 0
KPG1 112142Z 13011KT 35/11 A30 RMK A01 T03490110  RH  024%=      5-min Rain = 0
KPG1 112143Z 13007KT 35/11 A30 RMK A01 T03460110  RH  024%=      5-min Rain = 0
KPG1 112144Z 11004KT 34/11 A30 RMK A01 T03440110  RH  024%=      5-min Rain = 0
KPG1 112145Z 09004KT 34/11 A30 RMK A01 T03440109  RH  024%=      5-min Rain = 0
KPG1 112146Z 15007KT 34/11 A30 RMK A01 T03440110  RH  024%=      5-min Rain = 0
KPG1 112147Z 16006KT 35/11 A30 RMK A01 T03470109  RH  024%=      5-min Rain = 0
KPG1 112148Z 16007KT 35/11 A30 RMK A01 T03490108  RH  023%=      5-min Rain = 0
KPG1 112149Z 18006KT 35/11 A30 RMK A01 T03500105  RH  023%=      5-min Rain = 0
KPG1 112150Z 18005KT 35/10 A30 RMK A01 T03500103  RH  022%=      5-min Rain = 0
KPG1 112151Z 16004KT 35/11 A30 RMK A01 T03500106  RH  023%=      5-min Rain = 0
KPG1 112152Z 18003KT 35/10 A30 RMK A01 T03510103  RH  022%=      5-min Rain = 0
KPG1 112153Z 35005KT 35/10 A30 RMK A01 T03510102  RH  022%=      5-min Rain = 0
KPG1 112154Z 33004KT 35/10 A2999 RMK A01 T03490102  RH  022%=      5-min Rain = 0
KPG1 112155Z 32003KT 35/10 A2999 RMK A01 T03480101  RH  022%=      5-min Rain = 0
KPG1 112156Z 33004KT 35/10 A2999 RMK A01 T03490101  RH  022%=      5-min Rain = 0
KPG1 112157Z 21005KT 35/11 A2999 RMK A01 T03520106  RH  022%=      5-min Rain = 0
KPG1 112158Z 16007KT 36/10 A2999 RMK A01 T03560104  RH  022%=      5-min Rain = 0
KPG1 112159Z 13004KT 35/10 A2999 RMK A01 T03540100  RH  021%=      5-min Rain = 0
KPG1 112200Z 09005KT 35/10 A2999 RMK A01 T03520100  RH  022%=      5-min Rain = 0
KPG1 112201Z 07003KT 35/10 A2999 RMK A01 T03510097  RH  021%=      5-min Rain = 0
KPG1 112202Z 16002KT 35/10 A2999 RMK A01 T03490099  RH  022%=      5-min Rain = 0
KPG1 112203Z 12002KT 35/10 A2999 RMK A01 T03510102  RH  022%=      5-min Rain = 0
KPG1 112204Z 03001KT 35/10 A2999 RMK A01 T03520099  RH  021%=      5-min Rain = 0
KPG1 112205Z 08001KT 35/10 A2999 RMK A01 T03530098  RH  021%=      5-min Rain = 0
KPG1 112206Z 11004KT 35/10 A2999 RMK A01 T03530097  RH  021%=      5-min Rain = 0
KPG1 112207Z 12010KT 35/10 A2999 RMK A01 T03520100  RH  022%=      5-min Rain = 0
KPG1 112208Z 10006KT 35/10 A2999 RMK A01 T03490097  RH  022%=      5-min Rain = 0
KPG1 112209Z 10007KT 35/10 A2999 RMK A01 T03470098  RH  022%=      5-min Rain = 0
KPG1 112210Z 11010KT 35/10 A2999 RMK A01 T03460099  RH  022%=      5-min Rain = 0
KPG1 112211Z 11010KT 35/10 A2999 RMK A01 T03470101  RH  022%=      5-min Rain = 0
KPG1 112212Z 11008KT 35/10 A2999 RMK A01 T03490101  RH  022%=      5-min Rain = 0
KPG1 112213Z 12005KT 35/10 A2999 RMK A01 T03490102  RH  022%=      5-min Rain = 0
KPG1 112214Z 10003KT 35/10 A2999 RMK A01 T03490098  RH  022%=      5-min Rain = 0
KPG1 112215Z 16004KT 35/10 A2999 RMK A01 T03490100  RH  022%=      5-min Rain = 0
KPG1 112216Z 21004KT 35/10 A2998 RMK A01 T03490098  RH  022%=      5-min Rain = 0
KPG1 112217Z 20004KT 35/10 A2998 RMK A01 T03490100  RH  022%=      5-min Rain = 0
KPG1 112218Z 15005G10KT 35/10 A2998 RMK A01 T03510101  RH  022%=      5-min Rain = 0
KPG1 112219Z 15006KT 35/10 A2998 RMK A01 T03530099  RH  021%=      5-min Rain = 0
KPG1 112220Z 13006KT 35/10 A2998 RMK A01 T03510100  RH  022%=      5-min Rain = 0
KPG1 112221Z 14007KT 35/10 A2998 RMK A01 T03500100  RH  022%=      5-min Rain = 0
KPG1 112222Z 13005KT 35/10 A2998 RMK A01 T03500098  RH  022%=      5-min Rain = 0
KPG1 112223Z 10004KT 35/10 A2998 RMK A01 T03490098  RH  022%=      5-min Rain = 0
KPG1 112224Z 11002KT 35/10 A2998 RMK A01 T03490101  RH  022%=      5-min Rain = 0
KPG1 112225Z 09002KT 35/11 A2998 RMK A01 T03510107  RH  023%=      5-min Rain = 0
KPG1 112226Z 09004KT 35/11 A2998 RMK A01 T03540108  RH  023%=      5-min Rain = 0
KPG1 112227Z 07006KT 36/11 A2998 RMK A01 T03560108  RH  022%=      5-min Rain = 0
KPG1 112228Z 06009G14KT 36/11 A2998 RMK A01 T03560110  RH  023%=      5-min Rain = 0
KPG1 112229Z 07011KT 36/11 A2998 RMK A01 T03550109  RH  022%=      5-min Rain = 0
KPG1 112230Z 07010KT 35/11 A2998 RMK A01 T03540109  RH  023%=      5-min Rain = 0
KPG1 112231Z 07010KT 35/11 A2998 RMK A01 T03530105  RH  022%=      5-min Rain = 0
KPG1 112232Z 08011G16KT 35/10 A2998 RMK A01 T03490104  RH  022%=      5-min Rain = 0
KPG1 112233Z 07012KT 35/11 A2998 RMK A01 T03480105  RH  023%=      5-min Rain = 0
KPG1 112234Z 08011KT 35/11 A2998 RMK A01 T03470107  RH  023%=      5-min Rain = 0
KPG1 112235Z 08011KT 35/11 A2998 RMK A01 T03470107  RH  023%=      5-min Rain = 0
KPG1 112236Z 05007KT 35/11 A2998 RMK A01 T03480108  RH  023%=      5-min Rain = 0
KPG1 112237Z 16007KT 35/11 A2997 RMK A01 T03500108  RH  023%=      5-min Rain = 0
KPG1 112238Z 16004KT 35/10 A2998 RMK A01 T03510103  RH  022%=      5-min Rain = 0
KPG1 112239Z 14003KT 35/10 A2998 RMK A01 T03500104  RH  022%=      5-min Rain = 0
KPG1 112240Z 13004KT 35/11 A2997 RMK A01 T03500106  RH  023%=      5-min Rain = 0
KPG1 112241Z 16003KT 35/10 A2997 RMK A01 T03510104  RH  022%=      5-min Rain = 0
KPG1 112242Z 16002KT 35/11 A2997 RMK A01 T03520105  RH  022%=      5-min Rain = 0
KPG1 112243Z 11003KT 35/10 A2997 RMK A01 T03530102  RH  022%=      5-min Rain = 0
KPG1 112244Z 12005KT 35/11 A2997 RMK A01 T03530105  RH  022%=      5-min Rain = 0
KPG1 112245Z 08002KT 35/11 A2997 RMK A01 T03530106  RH  022%=      5-min Rain = 0
KPG1 112246Z 17003KT 35/11 A2997 RMK A01 T03530108  RH  023%=      5-min Rain = 0
KPG1 112247Z 07004KT 36/11 A2997 RMK A01 T03550110  RH  023%=      5-min Rain = 0
KPG1 112248Z 07007KT 36/11 A2998 RMK A01 T03560107  RH  022%=      5-min Rain = 0
KPG1 112249Z 07005KT 35/11 A2997 RMK A01 T03530107  RH  022%=      5-min Rain = 0
KPG1 112250Z 03006KT 35/11 A2997 RMK A01 T03510108  RH  023%=      5-min Rain = 0
KPG1 112251Z 04004KT 35/11 A2997 RMK A01 T03490108  RH  023%=      5-min Rain = 0
KPG1 112252Z 06004KT 35/11 A2997 RMK A01 T03480107  RH  023%=      5-min Rain = 0
KPG1 112253Z 03004KT 35/11 A2997 RMK A01 T03470110  RH  024%=      5-min Rain = 0
KPG1 112254Z 02004KT 35/11 A2997 RMK A01 T03480108  RH  023%=      5-min Rain = 0
KPG1 112255Z 04004KT 35/11 A2997 RMK A01 T03480108  RH  023%=      5-min Rain = 0
KPG1 112256Z 08011KT 35/11 A2997 RMK A01 T03480107  RH  023%=      5-min Rain = 0
KPG1 112257Z 12006KT 35/11 A2997 RMK A01 T03480108  RH  023%=      5-min Rain = 0
KPG1 112258Z 09007KT 35/11 A2997 RMK A01 T03480110  RH  024%=      5-min Rain = 0
KPG1 112259Z 08006KT 35/11 A2997 RMK A01 T03490112  RH  024%=      5-min Rain = 0
KPG1 112300Z 09009KT 35/11 A2997 RMK A01 T03500112  RH  024%=      5-min Rain = 0
KPG1 112301Z 10008KT 35/11 A2997 RMK A01 T03510112  RH  023%=      5-min Rain = 0
KPG1 112302Z 07009KT 35/11 A2997 RMK A01 T03510112  RH  023%=      5-min Rain = 0
KPG1 112303Z 06008KT 35/11 A2997 RMK A01 T03510112  RH  024%=      5-min Rain = 0
KPG1 112304Z 05011KT 35/11 A2997 RMK A01 T03500113  RH  024%=      5-min Rain = 0
KPG1 112305Z 06010KT 35/11 A2997 RMK A01 T03470111  RH  024%=      5-min Rain = 0
KPG1 112306Z 06006KT 35/11 A2997 RMK A01 T03450111  RH  024%=      5-min Rain = 0
KPG1 112307Z 03003KT 34/11 A2997 RMK A01 T03430109  RH  024%=      5-min Rain = 0
KPG1 112308Z 01003KT 34/11 A2997 RMK A01 T03420110  RH  024%=      5-min Rain = 0
KPG1 112309Z 03004KT 34/11 A2997 RMK A01 T03430114  RH  025%=      5-min Rain = 0
KPG1 112310Z 05005KT 35/11 A2997 RMK A01 T03450113  RH  024%=      5-min Rain = 0
KPG1 112311Z 06003KT 35/11 A2997 RMK A01 T03450110  RH  024%=      5-min Rain = 0
KPG1 112312Z 09002KT 34/11 A2997 RMK A01 T03440114  RH  025%=      5-min Rain = 0
KPG1 112313Z 09006KT 35/12 A2997 RMK A01 T03450115  RH  025%=      5-min Rain = 0
KPG1 112314Z 09007KT 35/12 A2997 RMK A01 T03460115  RH  025%=      5-min Rain = 0
KPG1 112315Z 09009KT 35/12 A2997 RMK A01 T03450115  RH  025%=      5-min Rain = 0
KPG1 112316Z 09007KT 34/11 A2997 RMK A01 T03440114  RH  025%=      5-min Rain = 0
KPG1 112317Z 09004KT 34/11 A2997 RMK A01 T03430112  RH  025%=      5-min Rain = 0
KPG1 112318Z 06001KT 34/11 A2997 RMK A01 T03420114  RH  025%=      5-min Rain = 0
KPG1 112319Z 17001KT 34/11 A2997 RMK A01 T03430114  RH  025%=      5-min Rain = 0
KPG1 112320Z 14003KT 35/12 A2997 RMK A01 T03450117  RH  025%=      5-min Rain = 0
KPG1 112321Z 14004KT 35/12 A2997 RMK A01 T03460116  RH  025%=      5-min Rain = 0
KPG1 112322Z 13006KT 35/12 A2997 RMK A01 T03460117  RH  025%=      5-min Rain = 0
KPG1 112323Z 15006KT 35/12 A2997 RMK A01 T03460116  RH  025%=      5-min Rain = 0
KPG1 112324Z 12006KT 34/12 A2997 RMK A01 T03440115  RH  025%=      5-min Rain = 0
KPG1 112325Z 11003KT 34/12 A2997 RMK A01 T03430115  RH  025%=      5-min Rain = 0
KPG1 112326Z 12003KT 34/12 A2997 RMK A01 T03430121  RH  026%=      5-min Rain = 0
KPG1 112327Z 10003KT 34/12 A2997 RMK A01 T03440115  RH  025%=      5-min Rain = 0
KPG1 112328Z 12001KT 35/12 A2997 RMK A01 T03450116  RH  025%=      5-min Rain = 0
KPG1 112329Z 05000KT 35/12 A2997 RMK A01 T03450117  RH  025%=      5-min Rain = 0
KPG1 112330Z 05003KT 35/12 A2997 RMK A01 T03450118  RH  025%=      5-min Rain = 0
KPG1 112331Z 05006KT 35/12 A2997 RMK A01 T03460120  RH  025%=      5-min Rain = 0
KPG1 112332Z 05009KT 35/12 A2996 RMK A01 T03460119  RH  025%=      5-min Rain = 0
KPG1 112333Z 04008KT 35/12 A2996 RMK A01 T03450119  RH  025%=      5-min Rain = 0
KPG1 112334Z 04007KT 34/12 A2997 RMK A01 T03430117  RH  025%=      5-min Rain = 0
KPG1 112335Z 06005KT 34/12 A2996 RMK A01 T03410119  RH  026%=      5-min Rain = 0
KPG1 112336Z 06004KT 34/12 A2996 RMK A01 T03410121  RH  026%=      5-min Rain = 0
KPG1 112337Z 07004KT 34/12 A2996 RMK A01 T03420118  RH  026%=      5-min Rain = 0
KPG1 112338Z 06007KT 34/12 A2996 RMK A01 T03410117  RH  026%=      5-min Rain = 0
KPG1 112339Z 06007KT 34/12 A2996 RMK A01 T03400117  RH  026%=      5-min Rain = 0
KPG1 112340Z 07006KT 34/12 A2996 RMK A01 T03400118  RH  026%=      5-min Rain = 0
KPG1 112341Z 06004KT 34/12 A2996 RMK A01 T03390119  RH  026%=      5-min Rain = 0
KPG1 112342Z 02005KT 34/12 A2996 RMK A01 T03390120  RH  026%=      5-min Rain = 0
KPG1 112343Z 01006KT 34/12 A2996 RMK A01 T03390117  RH  026%=      5-min Rain = 0
KPG1 112344Z 01006KT 34/12 A2996 RMK A01 T03390121  RH  027%=      5-min Rain = 0
KPG1 112345Z 05007KT 34/12 A2996 RMK A01 T03400121  RH  026%=      5-min Rain = 0
KPG1 112346Z 06007KT 34/12 A2996 RMK A01 T03410120  RH  026%=      5-min Rain = 0
KPG1 112347Z 07011KT 34/12 A2996 RMK A01 T03420116  RH  025%=      5-min Rain = 0
KPG1 112348Z 07008KT 34/11 A2996 RMK A01 T03420111  RH  025%=      5-min Rain = 0
KPG1 112349Z 06007KT 34/12 A2996 RMK A01 T03420115  RH  025%=      5-min Rain = 0
KPG1 112350Z 07008KT 34/12 A2996 RMK A01 T03430115  RH  025%=      5-min Rain = 0
KPG1 112351Z 11008KT 35/12 A2996 RMK A01 T03450118  RH  025%=      5-min Rain = 0
KPG1 112352Z 07006KT 35/11 A2996 RMK A01 T03460113  RH  024%=      5-min Rain = 0
KPG1 112353Z 08007KT 35/11 A2996 RMK A01 T03450111  RH  024%=      5-min Rain = 0
KPG1 112354Z 10007G12KT 34/11 A2996 RMK A01 T03440111  RH  024%=      5-min Rain = 0
KPG1 112355Z 09006KT 34/11 A2996 RMK A01 T03440110  RH  024%=      5-min Rain = 0
KPG1 112356Z 06008KT 34/11 A2996 RMK A01 T03430112  RH  025%=      5-min Rain = 0
KPG1 112357Z 06008KT 34/11 A2996 RMK A01 T03430111  RH  024%=      5-min Rain = 0
KPG1 112358Z 06007KT 34/11 A2996 RMK A01 T03430111  RH  024%=      5-min Rain = 0
KPG1 112359Z 07006KT 34/11 A2996 RMK A01 T03430111  RH  024%=      5-min Rain = 0
KPG1 120000Z 07007KT 34/11 A2996 RMK A01 T03430113  RH  025%=      5-min Rain = 0
KPG1 120001Z 07006KT 34/11 A2996 RMK A01 T03440113  RH  025%=      5-min Rain = 0
KPG1 120002Z 08006KT 34/11 A2996 RMK A01 T03440114  RH  025%=      5-min Rain = 0
KPG1 120003Z 08005KT 34/11 A2996 RMK A01 T03440109  RH  024%=      5-min Rain = 0
KPG1 120004Z 08004KT 34/11 A2996 RMK A01 T03430110  RH  024%=      5-min Rain = 0
KPG1 120005Z 08005KT 34/11 A2996 RMK A01 T03430109  RH  024%=      5-min Rain = 0
KPG1 120006Z 05004KT 34/11 A2996 RMK A01 T03420112  RH  025%=      5-min Rain = 0
KPG1 120007Z 03004KT 34/11 A2996 RMK A01 T03420114  RH  025%=      5-min Rain = 0
KPG1 120008Z 04006KT 34/11 A2996 RMK A01 T03420113  RH  025%=      5-min Rain = 0
KPG1 120009Z 04006KT 34/11 A2996 RMK A01 T03420111  RH  025%=      5-min Rain = 0
KPG1 120010Z 03006KT 34/11 A2996 RMK A01 T03410109  RH  024%=      5-min Rain = 0
KPG1 120011Z 03006KT 34/11 A2996 RMK A01 T03410110  RH  025%=      5-min Rain = 0
KPG1 120012Z 02008KT 34/11 A2996 RMK A01 T03400113  RH  025%=      5-min Rain = 0
KPG1 120013Z 02007KT 34/12 A2996 RMK A01 T03400116  RH  026%=      5-min Rain = 0
KPG1 120014Z 03006KT 34/12 A2996 RMK A01 T03390117  RH  026%=      5-min Rain = 0
KPG1 120015Z 02007KT 34/12 A2996 RMK A01 T03390115  RH  026%=      5-min Rain = 0
KPG1 120016Z 01010KT 34/12 A2996 RMK A01 T03390115  RH  026%=      5-min Rain = 0
KPG1 120017Z 01009KT 34/12 A2996 RMK A01 T03390115  RH  026%=      5-min Rain = 0
KPG1 120018Z 01007KT 34/11 A2996 RMK A01 T03390112  RH  025%=      5-min Rain = 0
KPG1 120019Z 01006KT 34/11 A2996 RMK A01 T03390112  RH  025%=      5-min Rain = 0
KPG1 120020Z 03008KT 34/11 A2996 RMK A01 T03390114  RH  025%=      5-min Rain = 0
KPG1 120021Z 02007KT 34/11 A2996 RMK A01 T03390113  RH  025%=      5-min Rain = 0
KPG1 120022Z 03007KT 34/11 A2996 RMK A01 T03380114  RH  026%=      5-min Rain = 0
KPG1 120023Z 05005KT 34/12 A2996 RMK A01 T03380115  RH  026%=      5-min Rain = 0
KPG1 120024Z 07007KT 34/12 A2996 RMK A01 T03380117  RH  026%=      5-min Rain = 0
KPG1 120025Z 06007KT 34/11 A2996 RMK A01 T03380114  RH  025%=      5-min Rain = 0
KPG1 120026Z 06006KT 34/11 A2996 RMK A01 T03380113  RH  025%=      5-min Rain = 0
KPG1 120027Z 07004KT 34/11 A2996 RMK A01 T03380111  RH  025%=      5-min Rain = 0
KPG1 120028Z 04004KT 34/11 A2996 RMK A01 T03380112  RH  025%=      5-min Rain = 0
KPG1 120029Z 04005KT 34/12 A2996 RMK A01 T03380116  RH  026%=      5-min Rain = 0
KPG1 120030Z 05005KT 34/11 A2996 RMK A01 T03380114  RH  026%=      5-min Rain = 0
KPG1 120031Z 05004KT 34/12 A2996 RMK A01 T03380115  RH  026%=      5-min Rain = 0
KPG1 120032Z 03004KT 34/11 A2996 RMK A01 T03380113  RH  026%=      5-min Rain = 0
KPG1 120033Z 01003KT 34/11 A2996 RMK A01 T03380114  RH  026%=      5-min Rain = 0
KPG1 120034Z 04003KT 34/11 A2996 RMK A01 T03380110  RH  025%=      5-min Rain = 0
KPG1 120035Z 05004KT 34/11 A2996 RMK A01 T03380111  RH  025%=      5-min Rain = 0
KPG1 120036Z 05004KT 34/11 A2996 RMK A01 T03370113  RH  025%=      5-min Rain = 0
KPG1 120037Z 02005KT 34/12 A2996 RMK A01 T03370116  RH  026%=      5-min Rain = 0
KPG1 120038Z 03005KT 34/12 A2996 RMK A01 T03360118  RH  026%=      5-min Rain = 0
KPG1 120039Z 02006KT 34/12 A2996 RMK A01 T03360116  RH  026%=      5-min Rain = 0
KPG1 120040Z 04007KT 34/11 A2996 RMK A01 T03360114  RH  026%=      5-min Rain = 0
KPG1 120041Z 06006KT 34/11 A2996 RMK A01 T03350113  RH  026%=      5-min Rain = 0
KPG1 120042Z 05006KT 34/11 A2996 RMK A01 T03350112  RH  026%=      5-min Rain = 0
KPG1 120043Z 03008KT 34/11 A2996 RMK A01 T03360113  RH  026%=      5-min Rain = 0
KPG1 120044Z 06008KT 34/11 A2996 RMK A01 T03360114  RH  026%=      5-min Rain = 0
KPG1 120045Z 05007KT 34/12 A2996 RMK A01 T03360117  RH  026%=      5-min Rain = 0
KPG1 120046Z 06009KT 34/12 A2996 RMK A01 T03350116  RH  026%=      5-min Rain = 0
KPG1 120047Z 05009KT 34/12 A2996 RMK A01 T03360116  RH  026%=      5-min Rain = 0
KPG1 120048Z 07007KT 34/12 A2996 RMK A01 T03360116  RH  026%=      5-min Rain = 0
KPG1 120049Z 06006KT 34/12 A2996 RMK A01 T03360119  RH  027%=      5-min Rain = 0
KPG1 120050Z 06008KT 34/12 A2996 RMK A01 T03360119  RH  027%=      5-min Rain = 0
KPG1 120051Z 07006KT 34/12 A2996 RMK A01 T03360118  RH  027%=      5-min Rain = 0
KPG1 120052Z 05008KT 34/12 A2996 RMK A01 T03360119  RH  027%=      5-min Rain = 0
KPG1 120053Z 06009KT 34/12 A2996 RMK A01 T03360116  RH  026%=      5-min Rain = 0
KPG1 120054Z 07006KT 34/12 A2996 RMK A01 T03360117  RH  026%=      5-min Rain = 0
KPG1 120055Z 06006KT 34/12 A2996 RMK A01 T03360118  RH  026%=      5-min Rain = 0
KPG1 120056Z 06008KT 34/12 A2996 RMK A01 T03360119  RH  027%=      5-min Rain = 0
KPG1 120057Z 06011KT 34/12 A2996 RMK A01 T03360117  RH  026%=      5-min Rain = 0
KPG1 120058Z 06010KT 34/12 A2996 RMK A01 T03370116  RH  026%=      5-min Rain = 0
KPG1 120059Z 06011KT 34/12 A2996 RMK A01 T03360115  RH  026%=      5-min Rain = 0
KPG1 120100Z 07009KT 34/11 A2996 RMK A01 T03360114  RH  026%=      5-min Rain = 0
KPG1 120101Z 05008KT 34/12 A2996 RMK A01 T03360116  RH  026%=      5-min Rain = 0
KPG1 120102Z 04007KT 34/11 A2996 RMK A01 T03350114  RH  026%=      5-min Rain = 0
KPG1 120103Z 05006KT 34/12 A2996 RMK A01 T03360115  RH  026%=      5-min Rain = 0
KPG1 120104Z 03006KT 34/12 A2996 RMK A01 T03350116  RH  026%=      5-min Rain = 0
KPG1 120105Z 05006KT 34/12 A2996 RMK A01 T03360115  RH  026%=      5-min Rain = 0
KPG1 120106Z 04006KT 34/12 A2996 RMK A01 T03360115  RH  026%=      5-min Rain = 0
KPG1 120107Z 04009KT 34/12 A2996 RMK A01 T03350116  RH  026%=      5-min Rain = 0
KPG1 120108Z 04008KT 34/12 A2996 RMK A01 T03350115  RH  026%=      5-min Rain = 0
KPG1 120109Z 03008KT 34/12 A2996 RMK A01 T03350115  RH  026%=      5-min Rain = 0
KPG1 120110Z 04009KT 34/12 A2996 RMK A01 T03350115  RH  026%=      5-min Rain = 0
KPG1 120111Z 04007KT 34/12 A2996 RMK A01 T03350115  RH  026%=      5-min Rain = 0
KPG1 120112Z 03006KT 34/12 A2996 RMK A01 T03350115  RH  026%=      5-min Rain = 0
KPG1 120113Z 03006KT 33/12 A2996 RMK A01 T03340116  RH  026%=      5-min Rain = 0
KPG1 120114Z 03006KT 33/12 A2996 RMK A01 T03340118  RH  027%=      5-min Rain = 0
KPG1 120115Z 04007KT 33/12 A2996 RMK A01 T03330120  RH  027%=      5-min Rain = 0
KPG1 120116Z 03007KT 33/12 A2996 RMK A01 T03320121  RH  028%=      5-min Rain = 0
KPG1 120117Z 04006KT 33/12 A2996 RMK A01 T03320122  RH  028%=      5-min Rain = 0
KPG1 120118Z 03007KT 33/12 A2996 RMK A01 T03320122  RH  028%=      5-min Rain = 0
KPG1 120119Z 04008KT 33/12 A2996 RMK A01 T03320124  RH  028%=      5-min Rain = 0
KPG1 120120Z 05007KT 33/12 A2996 RMK A01 T03320124  RH  028%=      5-min Rain = 0
KPG1 120121Z 05008KT 33/12 A2996 RMK A01 T03320124  RH  028%=      5-min Rain = 0
KPG1 120122Z 05006KT 33/12 A2996 RMK A01 T03320124  RH  028%=      5-min Rain = 0
KPG1 120123Z 05006KT 33/13 A2996 RMK A01 T03320125  RH  029%=      5-min Rain = 0
KPG1 120124Z 06008KT 33/13 A2996 RMK A01 T03320127  RH  029%=      5-min Rain = 0
KPG1 120125Z 07007KT 33/13 A2996 RMK A01 T03310128  RH  029%=      5-min Rain = 0
KPG1 120126Z 05007KT 33/13 A2996 RMK A01 T03300129  RH  030%=      5-min Rain = 0
KPG1 120127Z 06008KT 33/13 A2996 RMK A01 T03300130  RH  030%=      5-min Rain = 0
KPG1 120128Z 06008KT 33/13 A2996 RMK A01 T03300131  RH  030%=      5-min Rain = 0
KPG1 120129Z 05010KT 33/13 A2996 RMK A01 T03300131  RH  030%=      5-min Rain = 0
KPG1 120130Z 06010KT 33/13 A2996 RMK A01 T03290133  RH  031%=      5-min Rain = 0
KPG1 120131Z 05010KT 33/13 A2996 RMK A01 T03290134  RH  031%=      5-min Rain = 0
KPG1 120132Z 05007KT 33/14 A2996 RMK A01 T03280135  RH  031%=      5-min Rain = 0
KPG1 120133Z 06011KT 33/14 A2996 RMK A01 T03280135  RH  031%=      5-min Rain = 0
KPG1 120134Z 06011KT 33/14 A2996 RMK A01 T03280136  RH  031%=      5-min Rain = 0
KPG1 120135Z 06009KT 33/14 A2996 RMK A01 T03270137  RH  032%=      5-min Rain = 0
KPG1 120136Z 06010KT 33/14 A2996 RMK A01 T03270138  RH  032%=      5-min Rain = 0
KPG1 120137Z 06011KT 33/14 A2996 RMK A01 T03260139  RH  032%=      5-min Rain = 0
KPG1 120138Z 06008KT 33/14 A2996 RMK A01 T03260139  RH  032%=      5-min Rain = 0
KPG1 120139Z 05007KT 33/14 A2996 RMK A01 T03260139  RH  032%=      5-min Rain = 0
KPG1 120140Z 03011KT 33/14 A2996 RMK A01 T03250140  RH  033%=      5-min Rain = 0
KPG1 120141Z 04010KT 32/14 A2996 RMK A01 T03240140  RH  033%=      5-min Rain = 0
KPG1 120142Z 04009KT 32/14 A2997 RMK A01 T03240140  RH  033%=      5-min Rain = 0
KPG1 120143Z 03011KT 32/14 A2996 RMK A01 T03240140  RH  033%=      5-min Rain = 0
KPG1 120144Z 04009KT 32/14 A2997 RMK A01 T03240141  RH  033%=      5-min Rain = 0
KPG1 120145Z 04009KT 32/14 A2997 RMK A01 T03230141  RH  033%=      5-min Rain = 0
KPG1 120146Z 03011KT 32/14 A2996 RMK A01 T03230142  RH  033%=      5-min Rain = 0
KPG1 120147Z 06008KT 32/14 A2997 RMK A01 T03220142  RH  034%=      5-min Rain = 0
KPG1 120148Z 04007KT 32/14 A2997 RMK A01 T03220142  RH  034%=      5-min Rain = 0
KPG1 120149Z 04008G15KT 32/14 A2997 RMK A01 T03210142  RH  034%=      5-min Rain = 0
KPG1 120150Z 04011KT 32/14 A2997 RMK A01 T03210142  RH  034%=      5-min Rain = 0
KPG1 120151Z 03010KT 32/14 A2997 RMK A01 T03210142  RH  034%=      5-min Rain = 0
KPG1 120152Z 04013KT 32/14 A2996 RMK A01 T03210142  RH  034%=      5-min Rain = 0
KPG1 120153Z 05010KT 32/14 A2997 RMK A01 T03210141  RH  034%=      5-min Rain = 0
KPG1 120154Z 04009KT 32/14 A2996 RMK A01 T03210142  RH  034%=      5-min Rain = 0
KPG1 120155Z 03011KT 32/14 A2996 RMK A01 T03210141  RH  034%=      5-min Rain = 0
KPG1 120156Z 04010KT 32/14 A2997 RMK A01 T03210141  RH  034%=      5-min Rain = 0
KPG1 120157Z 04011KT 32/14 A2997 RMK A01 T03210142  RH  034%=      5-min Rain = 0
KPG1 120158Z 04008KT 32/14 A2997 RMK A01 T03200142  RH  034%=      5-min Rain = 0
KPG1 120159Z 04008KT 32/14 A2997 RMK A01 T03200143  RH  034%=      5-min Rain = 0
KPG1 120200Z 04009KT 32/14 A2997 RMK A01 T03190143  RH  034%=      5-min Rain = 0
KPG1 120201Z 03010KT 32/14 A2997 RMK A01 T03180142  RH  034%=      5-min Rain = 0
KPG1 120202Z 04008KT 32/14 A2997 RMK A01 T03180141  RH  034%=      5-min Rain = 0
KPG1 120203Z 03008KT 32/14 A2997 RMK A01 T03180143  RH  034%=      5-min Rain = 0
KPG1 120204Z 02011KT 32/14 A2997 RMK A01 T03180142  RH  035%=      5-min Rain = 0
KPG1 120205Z 03013KT 32/14 A2997 RMK A01 T03170142  RH  034%=      5-min Rain = 0
KPG1 120206Z 03010KT 32/14 A2997 RMK A01 T03170141  RH  034%=      5-min Rain = 0
KPG1 120207Z 04010KT 32/14 A2997 RMK A01 T03170142  RH  034%=      5-min Rain = 0
KPG1 120208Z 04007KT 32/14 A2997 RMK A01 T03170142  RH  035%=      5-min Rain = 0
KPG1 120209Z 04010KT 32/14 A2997 RMK A01 T03170143  RH  035%=      5-min Rain = 0
KPG1 120210Z 04010KT 32/14 A2997 RMK A01 T03160142  RH  035%=      5-min Rain = 0
KPG1 120211Z 03010KT 32/14 A2997 RMK A01 T03160142  RH  035%=      5-min Rain = 0
KPG1 120212Z 04011KT 32/14 A2997 RMK A01 T03160142  RH  035%=      5-min Rain = 0
KPG1 120213Z 03012KT 32/14 A2997 RMK A01 T03160142  RH  035%=      5-min Rain = 0
KPG1 120214Z 05010KT 32/14 A2997 RMK A01 T03160142  RH  035%=      5-min Rain = 0
KPG1 120215Z 04007KT 32/14 A2998 RMK A01 T03160142  RH  035%=      5-min Rain = 0
KPG1 120216Z 03010G15KT 32/14 A2998 RMK A01 T03150142  RH  035%=      5-min Rain = 0
KPG1 120217Z 03010KT 32/14 A2998 RMK A01 T03150142  RH  035%=      5-min Rain = 0
KPG1 120218Z 04009KT 32/14 A2998 RMK A01 T03150142  RH  035%=      5-min Rain = 0
KPG1 120219Z 03009G14KT 32/14 A2998 RMK A01 T03150142  RH  035%=      5-min Rain = 0
KPG1 120220Z 02012G17KT 32/14 A2998 RMK A01 T03150142  RH  035%=      5-min Rain = 0
KPG1 120221Z 04011KT 32/14 A2998 RMK A01 T03150142  RH  035%=      5-min Rain = 0
KPG1 120222Z 03008KT 31/14 A2998 RMK A01 T03140142  RH  035%=      5-min Rain = 0
KPG1 120223Z 03013KT 31/14 A2998 RMK A01 T03140142  RH  035%=      5-min Rain = 0
KPG1 120224Z 03010KT 31/14 A2998 RMK A01 T03140143  RH  035%=      5-min Rain = 0
KPG1 120225Z 04010KT 31/14 A2998 RMK A01 T03130142  RH  035%=      5-min Rain = 0
KPG1 120226Z 04009KT 31/14 A2998 RMK A01 T03140143  RH  035%=      5-min Rain = 0
KPG1 120227Z 03012KT 31/14 A2998 RMK A01 T03130142  RH  035%=      5-min Rain = 0
KPG1 120228Z 03012KT 31/14 A2998 RMK A01 T03130142  RH  035%=      5-min Rain = 0
KPG1 120229Z 03012KT 31/14 A2998 RMK A01 T03130141  RH  035%=      5-min Rain = 0
KPG1 120230Z 03011KT 31/14 A2998 RMK A01 T03130142  RH  035%=      5-min Rain = 0
KPG1 120231Z 02012KT 31/14 A2998 RMK A01 T03130142  RH  035%=      5-min Rain = 0
KPG1 120232Z 03013KT 31/14 A2998 RMK A01 T03130142  RH  035%=      5-min Rain = 0
KPG1 120233Z 03012KT 31/14 A2998 RMK A01 T03130142  RH  035%=      5-min Rain = 0
KPG1 120234Z 02009G14KT 31/14 A2998 RMK A01 T03120143  RH  036%=      5-min Rain = 0
KPG1 120235Z 04012KT 31/14 A2998 RMK A01 T03120143  RH  036%=      5-min Rain = 0
KPG1 120236Z 02011KT 31/14 A2998 RMK A01 T03110143  RH  036%=      5-min Rain = 0
KPG1 120237Z 02012KT 31/14 A2998 RMK A01 T03100143  RH  036%=      5-min Rain = 0
KPG1 120238Z 03012KT 31/14 A2999 RMK A01 T03110143  RH  036%=      5-min Rain = 0
KPG1 120239Z 03011G16KT 31/14 A2999 RMK A01 T03110142  RH  036%=      5-min Rain = 0
KPG1 120240Z 03010G15KT 31/14 A2999 RMK A01 T03110143  RH  036%=      5-min Rain = 0
KPG1 120241Z 03011KT 31/14 A2999 RMK A01 T03100143  RH  036%=      5-min Rain = 0
KPG1 120242Z 03012KT 31/14 A2999 RMK A01 T03100143  RH  036%=      5-min Rain = 0
KPG1 120243Z 03013KT 31/14 A2999 RMK A01 T03100143  RH  036%=      5-min Rain = 0
KPG1 120244Z 03013KT 31/14 A2999 RMK A01 T03100143  RH  036%=      5-min Rain = 0
KPG1 120245Z 03011KT 31/14 A2999 RMK A01 T03100143  RH  036%=      5-min Rain = 0
KPG1 120246Z 03012KT 31/14 A2999 RMK A01 T03090143  RH  036%=      5-min Rain = 0
KPG1 120247Z 03012KT 31/14 A2999 RMK A01 T03090143  RH  036%=      5-min Rain = 0
KPG1 120248Z 03012KT 31/14 A2999 RMK A01 T03090143  RH  036%=      5-min Rain = 0
KPG1 120249Z 04012KT 31/14 A2999 RMK A01 T03090144  RH  037%=      5-min Rain = 0
KPG1 120250Z 03012G18KT 31/14 A2999 RMK A01 T03090143  RH  037%=      5-min Rain = 0
KPG1 120251Z 03014KT 31/14 A2999 RMK A01 T03090143  RH  037%=      5-min Rain = 0
KPG1 120252Z 03014KT 31/14 A2999 RMK A01 T03090143  RH  037%=      5-min Rain = 0
KPG1 120253Z 03012KT 31/14 A2999 RMK A01 T03090143  RH  037%=      5-min Rain = 0
KPG1 120254Z 02013KT 31/14 A2999 RMK A01 T03090143  RH  037%=      5-min Rain = 0
KPG1 120255Z 03014KT 31/14 A2999 RMK A01 T03090143  RH  037%=      5-min Rain = 0
KPG1 120256Z 02013KT 31/14 A30 RMK A01 T03080143  RH  037%=      5-min Rain = 0
KPG1 120257Z 03012KT 31/14 A30 RMK A01 T03080143  RH  037%=      5-min Rain = 0
KPG1 120258Z 03013KT 31/14 A30 RMK A01 T03080143  RH  037%=      5-min Rain = 0
KPG1 120259Z 03013G18KT 31/14 A30 RMK A01 T03080144  RH  037%=      5-min Rain = 0
KPG1 120300Z 03014G19KT 31/14 A30 RMK A01 T03070144  RH  037%=      5-min Rain = 0
KPG1 120301Z 03012KT 31/14 A30 RMK A01 T03080144  RH  037%=      5-min Rain = 0
KPG1 120302Z 03012KT 31/14 A30 RMK A01 T03070144  RH  037%=      5-min Rain = 0
KPG1 120303Z 03014KT 31/14 A30 RMK A01 T03070144  RH  037%=      5-min Rain = 0
KPG1 120304Z 03012KT 31/14 A30 RMK A01 T03070144  RH  037%=      5-min Rain = 0
KPG1 120305Z 03010KT 31/14 A30 RMK A01 T03060144  RH  037%=      5-min Rain = 0
KPG1 120306Z 02008KT 31/15 A30 RMK A01 T03060145  RH  037%=      5-min Rain = 0
KPG1 120307Z 02010KT 31/14 A30 RMK A01 T03050144  RH  038%=      5-min Rain = 0
KPG1 120308Z 04013KT 30/14 A3001 RMK A01 T03040144  RH  038%=      5-min Rain = 0
KPG1 120309Z 03012KT 30/14 A3001 RMK A01 T03040143  RH  037%=      5-min Rain = 0
KPG1 120310Z 03010KT 31/14 A3001 RMK A01 T03050144  RH  037%=      5-min Rain = 0
KPG1 120311Z 03011KT 31/14 A3001 RMK A01 T03050144  RH  038%=      5-min Rain = 0
KPG1 120312Z 04011KT 30/14 A3001 RMK A01 T03040144  RH  038%=      5-min Rain = 0
KPG1 120313Z 03012G18KT 30/14 A3001 RMK A01 T03040144  RH  038%=      5-min Rain = 0
KPG1 120314Z 03012KT 30/14 A3001 RMK A01 T03040144  RH  038%=      5-min Rain = 0
KPG1 120315Z 04011KT 30/14 A3001 RMK A01 T03040144  RH  038%=      5-min Rain = 0
KPG1 120316Z 03012KT 30/14 A3001 RMK A01 T03040144  RH  038%=      5-min Rain = 0
KPG1 120317Z 03009KT 30/14 A3001 RMK A01 T03040144  RH  038%=      5-min Rain = 0
KPG1 120318Z 04012KT 30/14 A3002 RMK A01 T03030144  RH  038%=      5-min Rain = 0
KPG1 120319Z 04015KT 30/14 A3002 RMK A01 T03030144  RH  038%=      5-min Rain = 0
KPG1 120320Z 03012KT 30/14 A3002 RMK A01 T03030143  RH  038%=      5-min Rain = 0
KPG1 120321Z 04012KT 30/14 A3002 RMK A01 T03040144  RH  038%=      5-min Rain = 0
KPG1 120322Z 03012KT 30/14 A3002 RMK A01 T03030144  RH  038%=      5-min Rain = 0
KPG1 120323Z 03010KT 30/14 A3002 RMK A01 T03030144  RH  038%=      5-min Rain = 0
KPG1 120324Z 03013G18KT 30/14 A3002 RMK A01 T03030143  RH  038%=      5-min Rain = 0
KPG1 120325Z 04010G15KT 30/14 A3002 RMK A01 T03030143  RH  038%=      5-min Rain = 0
KPG1 120326Z 02010KT 30/14 A3002 RMK A01 T03030143  RH  038%=      5-min Rain = 0
KPG1 120327Z 03012KT 30/14 A3002 RMK A01 T03030144  RH  038%=      5-min Rain = 0
KPG1 120328Z 03011KT 30/14 A3002 RMK A01 T03020144  RH  038%=      5-min Rain = 0
KPG1 120329Z 03011KT 30/14 A3002 RMK A01 T03020144  RH  038%=      5-min Rain = 0
KPG1 120330Z 03010KT 30/15 A3002 RMK A01 T03020145  RH  038%=      5-min Rain = 0
KPG1 120331Z 02010KT 30/15 A3002 RMK A01 T03010145  RH  039%=      5-min Rain = 0
KPG1 120332Z 02009KT 30/14 A3002 RMK A01 T03010144  RH  039%=      5-min Rain = 0
KPG1 120333Z 02008KT 30/14 A3002 RMK A01 T03000144  RH  039%=      5-min Rain = 0
KPG1 120334Z 03007KT 30/15 A3003 RMK A01 T03010145  RH  039%=      5-min Rain = 0
KPG1 120335Z 03007KT 30/15 A3003 RMK A01 T03000145  RH  039%=      5-min Rain = 0
KPG1 120336Z 02007KT 30/15 A3003 RMK A01 T02990145  RH  039%=      5-min Rain = 0
KPG1 120337Z 03007KT 30/14 A3003 RMK A01 T02990144  RH  039%=      5-min Rain = 0
KPG1 120338Z 02006KT 30/14 A3003 RMK A01 T02990144  RH  039%=      5-min Rain = 0
KPG1 120339Z 03006KT 30/15 A3003 RMK A01 T03000145  RH  039%=      5-min Rain = 0
KPG1 120340Z 04006KT 30/15 A3003 RMK A01 T02990145  RH  039%=      5-min Rain = 0
KPG1 120341Z 06005KT 30/14 A3003 RMK A01 T02980144  RH  039%=      5-min Rain = 0
KPG1 120342Z 07005KT 30/14 A3003 RMK A01 T02980144  RH  039%=      5-min Rain = 0
KPG1 120343Z 07004KT 30/14 A3003 RMK A01 T02990144  RH  039%=      5-min Rain = 0
KPG1 120344Z 04005KT 30/15 A3003 RMK A01 T02990145  RH  039%=      5-min Rain = 0
KPG1 120345Z 06006KT 30/15 A3003 RMK A01 T02980145  RH  039%=      5-min Rain = 0
KPG1 120346Z 05005KT 30/14 A3003 RMK A01 T02970143  RH  039%=      5-min Rain = 0
KPG1 120347Z 06005KT 30/14 A3003 RMK A01 T02970142  RH  039%=      5-min Rain = 0
KPG1 120348Z 09004KT 30/14 A3003 RMK A01 T02970144  RH  039%=      5-min Rain = 0
KPG1 120349Z 08003KT 30/14 A3003 RMK A01 T02960144  RH  039%=      5-min Rain = 0
KPG1 120350Z 04003KT 30/14 A3003 RMK A01 T02950141  RH  039%=      5-min Rain = 0
KPG1 120351Z 04004KT 30/14 A3003 RMK A01 T02960142  RH  039%=      5-min Rain = 0
KPG1 120352Z 06004KT 30/14 A3003 RMK A01 T02960142  RH  039%=      5-min Rain = 0
KPG1 120353Z 06004KT 30/14 A3003 RMK A01 T02960141  RH  039%=      5-min Rain = 0
KPG1 120354Z 05005KT 30/14 A3003 RMK A01 T02970140  RH  038%=      5-min Rain = 0
KPG1 120355Z 06006KT 30/14 A3003 RMK A01 T02970138  RH  038%=      5-min Rain = 0
KPG1 120356Z 06003KT 30/14 A3003 RMK A01 T02980142  RH  038%=      5-min Rain = 0
KPG1 120357Z 08004KT 30/14 A3003 RMK A01 T02970140  RH  038%=      5-min Rain = 0
KPG1 120358Z 07004KT 30/14 A3004 RMK A01 T02960142  RH  039%=      5-min Rain = 0
KPG1 120359Z 06004KT 29/14 A3004 RMK A01 T02940138  RH  038%=      5-min Rain = 0
KPG1 120400Z 08004KT 30/14 A3004 RMK A01 T02950138  RH  038%=      5-min Rain = 0
KPG1 120401Z 10005KT 30/14 A3004 RMK A01 T02950137  RH  038%=      5-min Rain = 0
KPG1 120402Z 10005KT 30/13 A3004 RMK A01 T02970134  RH  037%=      5-min Rain = 0
KPG1 120403Z 09004KT 30/14 A3004 RMK A01 T02990135  RH  037%=      5-min Rain = 0
KPG1 120404Z 10007KT 30/13 A3004 RMK A01 T02990132  RH  036%=      5-min Rain = 0
KPG1 120405Z 10008KT 30/13 A3004 RMK A01 T03000131  RH  036%=      5-min Rain = 0
KPG1 120406Z 10008KT 30/13 A3004 RMK A01 T03010131  RH  035%=      5-min Rain = 0
KPG1 120407Z 10006KT 30/13 A3004 RMK A01 T03020130  RH  035%=      5-min Rain = 0
KPG1 120408Z 10007KT 30/13 A3004 RMK A01 T03030131  RH  035%=      5-min Rain = 0
KPG1 120409Z 10006KT 30/13 A3004 RMK A01 T03020131  RH  035%=      5-min Rain = 0
KPG1 120410Z 09005KT 30/13 A3004 RMK A01 T03020132  RH  035%=      5-min Rain = 0
KPG1 120411Z 10006KT 30/13 A3004 RMK A01 T03020132  RH  035%=      5-min Rain = 0
KPG1 120412Z 09006KT 30/13 A3004 RMK A01 T03010132  RH  035%=      5-min Rain = 0
KPG1 120413Z 09007KT 30/13 A3004 RMK A01 T03010132  RH  035%=      5-min Rain = 0
KPG1 120414Z 09008KT 30/13 A3004 RMK A01 T03010131  RH  035%=      5-min Rain = 0
KPG1 120415Z 10007KT 30/13 A3004 RMK A01 T03020131  RH  035%=      5-min Rain = 0
KPG1 120416Z 10007KT 30/13 A3005 RMK A01 T03020131  RH  035%=      5-min Rain = 0
KPG1 120417Z 11008KT 30/13 A3004 RMK A01 T03030131  RH  035%=      5-min Rain = 0
KPG1 120418Z 10007KT 30/13 A3005 RMK A01 T03020131  RH  035%=      5-min Rain = 0
KPG1 120419Z 10007KT 30/13 A3005 RMK A01 T03020131  RH  035%=      5-min Rain = 0
KPG1 120420Z 11008KT 30/13 A3005 RMK A01 T03010131  RH  035%=      5-min Rain = 0
KPG1 120421Z 10007KT 30/13 A3005 RMK A01 T03020130  RH  035%=      5-min Rain = 0
KPG1 120422Z 09006KT 30/13 A3005 RMK A01 T03020132  RH  035%=      5-min Rain = 0
KPG1 120423Z 10010G16KT 30/13 A3005 RMK A01 T03010131  RH  035%=      5-min Rain = 0
KPG1 120424Z 10011KT 30/13 A3005 RMK A01 T03020130  RH  035%=      5-min Rain = 0
KPG1 120425Z 09011KT 30/13 A3005 RMK A01 T03030131  RH  035%=      5-min Rain = 0
KPG1 120426Z 09007KT 30/13 A3005 RMK A01 T03040131  RH  035%=      5-min Rain = 0
KPG1 120427Z 09005KT 30/13 A3005 RMK A01 T03040130  RH  035%=      5-min Rain = 0
KPG1 120428Z 10007KT 30/13 A3005 RMK A01 T03040131  RH  035%=      5-min Rain = 0
KPG1 120429Z 10008KT 30/13 A3005 RMK A01 T03030131  RH  035%=      5-min Rain = 0
KPG1 120430Z 11010KT 30/13 A3005 RMK A01 T03030131  RH  035%=      5-min Rain = 0
KPG1 120431Z 11009KT 30/13 A3005 RMK A01 T03030131  RH  035%=      5-min Rain = 0
KPG1 120432Z 10008KT 30/13 A3005 RMK A01 T03030131  RH  035%=      5-min Rain = 0
KPG1 120433Z 10007KT 30/13 A3005 RMK A01 T03020131  RH  035%=      5-min Rain = 0
KPG1 120434Z 12009KT 30/13 A3005 RMK A01 T03020131  RH  035%=      5-min Rain = 0
KPG1 120435Z 12007KT 30/13 A3005 RMK A01 T03020131  RH  035%=      5-min Rain = 0
KPG1 120436Z 09006KT 30/13 A3005 RMK A01 T03010131  RH  035%=      5-min Rain = 0
KPG1 120437Z 08005KT 30/13 A3005 RMK A01 T03010131  RH  035%=      5-min Rain = 0
KPG1 120438Z 06005KT 30/13 A3005 RMK A01 T02990132  RH  036%=      5-min Rain = 0
KPG1 120439Z 07005KT 30/13 A3005 RMK A01 T02970133  RH  037%=      5-min Rain = 0
KPG1 120440Z 08005KT 30/13 A3005 RMK A01 T02950132  RH  037%=      5-min Rain = 0
KPG1 120441Z 07006KT 29/13 A3005 RMK A01 T02940132  RH  037%=      5-min Rain = 0
KPG1 120442Z 04005KT 29/13 A3005 RMK A01 T02940133  RH  037%=      5-min Rain = 0
KPG1 120443Z 05005KT 29/13 A3005 RMK A01 T02930134  RH  038%=      5-min Rain = 0
KPG1 120444Z 06006KT 29/13 A3005 RMK A01 T02920134  RH  038%=      5-min Rain = 0
KPG1 120445Z 06006KT 29/14 A3005 RMK A01 T02910135  RH  038%=      5-min Rain = 0
KPG1 120446Z 06006KT 29/14 A3005 RMK A01 T02900135  RH  039%=      5-min Rain = 0
KPG1 120447Z 06007KT 29/14 A3005 RMK A01 T02890136  RH  039%=      5-min Rain = 0
KPG1 120448Z 07007KT 29/14 A3005 RMK A01 T02880137  RH  040%=      5-min Rain = 0
KPG1 120449Z 06006KT 29/14 A3005 RMK A01 T02880136  RH  039%=      5-min Rain = 0
KPG1 120450Z 03005KT 29/14 A3005 RMK A01 T02880139  RH  040%=      5-min Rain = 0
KPG1 120451Z 03006KT 29/14 A3005 RMK A01 T02870140  RH  041%=      5-min Rain = 0
KPG1 120452Z 03007KT 29/14 A3005 RMK A01 T02850140  RH  041%=      5-min Rain = 0
KPG1 120453Z 02006KT 29/14 A3005 RMK A01 T02850140  RH  041%=      5-min Rain = 0
KPG1 120454Z 01006KT 29/14 A3005 RMK A01 T02850141  RH  041%=      5-min Rain = 0
KPG1 120455Z 04005KT 28/14 A3006 RMK A01 T02840143  RH  042%=      5-min Rain = 0
KPG1 120456Z 04004KT 28/14 A3006 RMK A01 T02820143  RH  042%=      5-min Rain = 0
KPG1 120457Z 02005KT 28/14 A3006 RMK A01 T02810142  RH  043%=      5-min Rain = 0
KPG1 120458Z 03004KT 28/14 A3006 RMK A01 T02810144  RH  043%=      5-min Rain = 0
KPG1 120459Z 05004KT 28/14 A3006 RMK A01 T02800144  RH  044%=      5-min Rain = 0
KPG1 120500Z 05005KT 28/14 A3006 RMK A01 T02790144  RH  044%=      5-min Rain = 0

Page generated in 0.0462 seconds.